<?xml version="1.0" encoding="UTF-8" standalone="no" ?>
<gpx xmlns="http://www.topografix.com/GPX/1/1" xmlns:xsi="http://www.w3.org/2001/XMLSchema-instance" xsi:schemaLocation="http://www.topografix.com/GPX/1/1 http://www.topografix.com/GPX/1/1/gpx.xsd" version="1.1" creator="VisuGPX - https://www.visugpx.com">
  <metadata>
    <name>2024-06-03-46-Escamps</name>
    <desc><![CDATA[Randonnée du 29/09/2016, d’environ 12km avec 120m de denivelé positif. Beau parcours essentiellement en sous-bois, lavoirs, lac, et garriottes à découvrir.
]]></desc>
  </metadata>
  <trk>
    <name><![CDATA[2016-09-29-Escamps]]></name>
    <trkseg>
      <trkpt lat="44.36721" lon="1.63382">
        <ele>276</ele>
        <time>2016-09-29T11:58:01Z</time>
      </trkpt>
      <trkpt lat="44.3672" lon="1.63387">
        <ele>276</ele>
        <time>2016-09-29T11:58:02Z</time>
      </trkpt>
      <trkpt lat="44.36711" lon="1.63386">
        <ele>276.6</ele>
        <time>2016-09-29T12:00:05Z</time>
      </trkpt>
      <trkpt lat="44.3672" lon="1.63383">
        <ele>277.2</ele>
        <time>2016-09-29T12:04:12Z</time>
      </trkpt>
      <trkpt lat="44.36729" lon="1.63381">
        <ele>277.4</ele>
        <time>2016-09-29T12:04:24Z</time>
      </trkpt>
      <trkpt lat="44.36738" lon="1.6338">
        <ele>277.4</ele>
        <time>2016-09-29T12:04:36Z</time>
      </trkpt>
      <trkpt lat="44.36748" lon="1.63376">
        <ele>277.3</ele>
        <time>2016-09-29T12:04:48Z</time>
      </trkpt>
      <trkpt lat="44.36757" lon="1.63372">
        <ele>276.9</ele>
        <time>2016-09-29T12:05:00Z</time>
      </trkpt>
      <trkpt lat="44.36766" lon="1.63367">
        <ele>276.8</ele>
        <time>2016-09-29T12:05:09Z</time>
      </trkpt>
      <trkpt lat="44.36775" lon="1.6336">
        <ele>276.7</ele>
        <time>2016-09-29T12:05:18Z</time>
      </trkpt>
      <trkpt lat="44.36781" lon="1.63349">
        <ele>276.5</ele>
        <time>2016-09-29T12:05:27Z</time>
      </trkpt>
      <trkpt lat="44.36783" lon="1.63337">
        <ele>276.2</ele>
        <time>2016-09-29T12:05:36Z</time>
      </trkpt>
      <trkpt lat="44.36785" lon="1.63323">
        <ele>276.2</ele>
        <time>2016-09-29T12:05:45Z</time>
      </trkpt>
      <trkpt lat="44.36785" lon="1.6331">
        <ele>276.2</ele>
        <time>2016-09-29T12:05:54Z</time>
      </trkpt>
      <trkpt lat="44.36785" lon="1.63296">
        <ele>276.4</ele>
        <time>2016-09-29T12:06:03Z</time>
      </trkpt>
      <trkpt lat="44.36785" lon="1.63282">
        <ele>276.5</ele>
        <time>2016-09-29T12:06:12Z</time>
      </trkpt>
      <trkpt lat="44.36786" lon="1.63269">
        <ele>276.6</ele>
        <time>2016-09-29T12:06:20Z</time>
      </trkpt>
      <trkpt lat="44.36787" lon="1.63256">
        <ele>276.3</ele>
        <time>2016-09-29T12:06:28Z</time>
      </trkpt>
      <trkpt lat="44.36788" lon="1.63243">
        <ele>276</ele>
        <time>2016-09-29T12:06:36Z</time>
      </trkpt>
      <trkpt lat="44.36788" lon="1.63229">
        <ele>275.5</ele>
        <time>2016-09-29T12:06:44Z</time>
      </trkpt>
      <trkpt lat="44.36787" lon="1.63216">
        <ele>275.2</ele>
        <time>2016-09-29T12:06:53Z</time>
      </trkpt>
      <trkpt lat="44.36787" lon="1.63203">
        <ele>274.6</ele>
        <time>2016-09-29T12:07:02Z</time>
      </trkpt>
      <trkpt lat="44.36784" lon="1.63191">
        <ele>274.2</ele>
        <time>2016-09-29T12:07:10Z</time>
      </trkpt>
      <trkpt lat="44.36782" lon="1.63177">
        <ele>273.9</ele>
        <time>2016-09-29T12:07:19Z</time>
      </trkpt>
      <trkpt lat="44.36778" lon="1.63164">
        <ele>273.5</ele>
        <time>2016-09-29T12:07:27Z</time>
      </trkpt>
      <trkpt lat="44.36776" lon="1.6315">
        <ele>273</ele>
        <time>2016-09-29T12:07:35Z</time>
      </trkpt>
      <trkpt lat="44.36773" lon="1.63137">
        <ele>272.6</ele>
        <time>2016-09-29T12:07:44Z</time>
      </trkpt>
      <trkpt lat="44.3677" lon="1.63125">
        <ele>272.3</ele>
        <time>2016-09-29T12:07:51Z</time>
      </trkpt>
      <trkpt lat="44.36767" lon="1.63113">
        <ele>272.1</ele>
        <time>2016-09-29T12:07:58Z</time>
      </trkpt>
      <trkpt lat="44.36763" lon="1.63101">
        <ele>271.6</ele>
        <time>2016-09-29T12:08:05Z</time>
      </trkpt>
      <trkpt lat="44.3676" lon="1.63087">
        <ele>271</ele>
        <time>2016-09-29T12:08:13Z</time>
      </trkpt>
      <trkpt lat="44.36757" lon="1.63073">
        <ele>270.6</ele>
        <time>2016-09-29T12:08:21Z</time>
      </trkpt>
      <trkpt lat="44.36755" lon="1.6306">
        <ele>270.3</ele>
        <time>2016-09-29T12:08:30Z</time>
      </trkpt>
      <trkpt lat="44.36752" lon="1.63047">
        <ele>270.1</ele>
        <time>2016-09-29T12:08:38Z</time>
      </trkpt>
      <trkpt lat="44.36751" lon="1.63034">
        <ele>269.8</ele>
        <time>2016-09-29T12:08:46Z</time>
      </trkpt>
      <trkpt lat="44.36749" lon="1.6302">
        <ele>269.5</ele>
        <time>2016-09-29T12:08:54Z</time>
      </trkpt>
      <trkpt lat="44.36747" lon="1.63007">
        <ele>269.2</ele>
        <time>2016-09-29T12:09:01Z</time>
      </trkpt>
      <trkpt lat="44.36745" lon="1.62994">
        <ele>268.7</ele>
        <time>2016-09-29T12:09:08Z</time>
      </trkpt>
      <trkpt lat="44.36744" lon="1.62981">
        <ele>268.3</ele>
        <time>2016-09-29T12:09:16Z</time>
      </trkpt>
      <trkpt lat="44.36742" lon="1.62967">
        <ele>268.1</ele>
        <time>2016-09-29T12:09:24Z</time>
      </trkpt>
      <trkpt lat="44.3674" lon="1.62953">
        <ele>267.5</ele>
        <time>2016-09-29T12:09:32Z</time>
      </trkpt>
      <trkpt lat="44.36738" lon="1.62939">
        <ele>267.2</ele>
        <time>2016-09-29T12:09:40Z</time>
      </trkpt>
      <trkpt lat="44.36736" lon="1.62926">
        <ele>266.8</ele>
        <time>2016-09-29T12:09:48Z</time>
      </trkpt>
      <trkpt lat="44.36735" lon="1.62913">
        <ele>266.4</ele>
        <time>2016-09-29T12:09:56Z</time>
      </trkpt>
      <trkpt lat="44.36736" lon="1.62899">
        <ele>265.9</ele>
        <time>2016-09-29T12:10:04Z</time>
      </trkpt>
      <trkpt lat="44.36737" lon="1.62885">
        <ele>265.3</ele>
        <time>2016-09-29T12:10:12Z</time>
      </trkpt>
      <trkpt lat="44.3674" lon="1.62872">
        <ele>264.8</ele>
        <time>2016-09-29T12:10:20Z</time>
      </trkpt>
      <trkpt lat="44.36742" lon="1.62859">
        <ele>264.5</ele>
        <time>2016-09-29T12:10:28Z</time>
      </trkpt>
      <trkpt lat="44.36745" lon="1.62847">
        <ele>264.3</ele>
        <time>2016-09-29T12:10:36Z</time>
      </trkpt>
      <trkpt lat="44.36747" lon="1.62834">
        <ele>264.1</ele>
        <time>2016-09-29T12:10:44Z</time>
      </trkpt>
      <trkpt lat="44.36754" lon="1.62826">
        <ele>264.3</ele>
        <time>2016-09-29T12:10:53Z</time>
      </trkpt>
      <trkpt lat="44.36762" lon="1.62821">
        <ele>264.8</ele>
        <time>2016-09-29T12:11:05Z</time>
      </trkpt>
      <trkpt lat="44.36772" lon="1.62819">
        <ele>265.3</ele>
        <time>2016-09-29T12:11:16Z</time>
      </trkpt>
      <trkpt lat="44.36781" lon="1.6282">
        <ele>266.4</ele>
        <time>2016-09-29T12:11:27Z</time>
      </trkpt>
      <trkpt lat="44.36791" lon="1.62822">
        <ele>266.9</ele>
        <time>2016-09-29T12:11:38Z</time>
      </trkpt>
      <trkpt lat="44.368" lon="1.62823">
        <ele>268</ele>
        <time>2016-09-29T12:11:47Z</time>
      </trkpt>
      <trkpt lat="44.3681" lon="1.62822">
        <ele>268.7</ele>
        <time>2016-09-29T12:11:56Z</time>
      </trkpt>
      <trkpt lat="44.3682" lon="1.62821">
        <ele>269.6</ele>
        <time>2016-09-29T12:12:05Z</time>
      </trkpt>
      <trkpt lat="44.3683" lon="1.62821">
        <ele>270.6</ele>
        <time>2016-09-29T12:12:14Z</time>
      </trkpt>
      <trkpt lat="44.36839" lon="1.6282">
        <ele>271.2</ele>
        <time>2016-09-29T12:12:23Z</time>
      </trkpt>
      <trkpt lat="44.36848" lon="1.62818">
        <ele>271.6</ele>
        <time>2016-09-29T12:12:31Z</time>
      </trkpt>
      <trkpt lat="44.36857" lon="1.62814">
        <ele>272</ele>
        <time>2016-09-29T12:12:38Z</time>
      </trkpt>
      <trkpt lat="44.36865" lon="1.62809">
        <ele>272.6</ele>
        <time>2016-09-29T12:12:46Z</time>
      </trkpt>
      <trkpt lat="44.36874" lon="1.62804">
        <ele>273.3</ele>
        <time>2016-09-29T12:12:56Z</time>
      </trkpt>
      <trkpt lat="44.36882" lon="1.62796">
        <ele>274</ele>
        <time>2016-09-29T12:13:04Z</time>
      </trkpt>
      <trkpt lat="44.3689" lon="1.62788">
        <ele>274.3</ele>
        <time>2016-09-29T12:13:12Z</time>
      </trkpt>
      <trkpt lat="44.36897" lon="1.62778">
        <ele>274.7</ele>
        <time>2016-09-29T12:13:20Z</time>
      </trkpt>
      <trkpt lat="44.36905" lon="1.62771">
        <ele>275</ele>
        <time>2016-09-29T12:13:28Z</time>
      </trkpt>
      <trkpt lat="44.36912" lon="1.62761">
        <ele>275.3</ele>
        <time>2016-09-29T12:13:37Z</time>
      </trkpt>
      <trkpt lat="44.3692" lon="1.62752">
        <ele>275.7</ele>
        <time>2016-09-29T12:13:46Z</time>
      </trkpt>
      <trkpt lat="44.36926" lon="1.62743">
        <ele>276</ele>
        <time>2016-09-29T12:13:54Z</time>
      </trkpt>
      <trkpt lat="44.36932" lon="1.62732">
        <ele>276.1</ele>
        <time>2016-09-29T12:14:02Z</time>
      </trkpt>
      <trkpt lat="44.36939" lon="1.62722">
        <ele>276.2</ele>
        <time>2016-09-29T12:14:10Z</time>
      </trkpt>
      <trkpt lat="44.36944" lon="1.62711">
        <ele>276.4</ele>
        <time>2016-09-29T12:14:18Z</time>
      </trkpt>
      <trkpt lat="44.36949" lon="1.627">
        <ele>276.7</ele>
        <time>2016-09-29T12:14:25Z</time>
      </trkpt>
      <trkpt lat="44.36954" lon="1.62688">
        <ele>276.9</ele>
        <time>2016-09-29T12:14:33Z</time>
      </trkpt>
      <trkpt lat="44.36959" lon="1.62677">
        <ele>277.3</ele>
        <time>2016-09-29T12:14:41Z</time>
      </trkpt>
      <trkpt lat="44.36965" lon="1.62667">
        <ele>277.5</ele>
        <time>2016-09-29T12:14:49Z</time>
      </trkpt>
      <trkpt lat="44.36971" lon="1.62657">
        <ele>278</ele>
        <time>2016-09-29T12:14:57Z</time>
      </trkpt>
      <trkpt lat="44.36977" lon="1.62645">
        <ele>278.6</ele>
        <time>2016-09-29T12:15:06Z</time>
      </trkpt>
      <trkpt lat="44.36983" lon="1.62636">
        <ele>278.9</ele>
        <time>2016-09-29T12:15:14Z</time>
      </trkpt>
      <trkpt lat="44.36989" lon="1.62626">
        <ele>279.1</ele>
        <time>2016-09-29T12:15:22Z</time>
      </trkpt>
      <trkpt lat="44.36997" lon="1.62618">
        <ele>279.1</ele>
        <time>2016-09-29T12:15:31Z</time>
      </trkpt>
      <trkpt lat="44.37005" lon="1.62611">
        <ele>279.3</ele>
        <time>2016-09-29T12:15:39Z</time>
      </trkpt>
      <trkpt lat="44.37012" lon="1.62602">
        <ele>279</ele>
        <time>2016-09-29T12:15:47Z</time>
      </trkpt>
      <trkpt lat="44.37018" lon="1.62593">
        <ele>279</ele>
        <time>2016-09-29T12:15:55Z</time>
      </trkpt>
      <trkpt lat="44.37025" lon="1.62584">
        <ele>278.9</ele>
        <time>2016-09-29T12:16:03Z</time>
      </trkpt>
      <trkpt lat="44.37031" lon="1.62574">
        <ele>278.9</ele>
        <time>2016-09-29T12:16:12Z</time>
      </trkpt>
      <trkpt lat="44.37038" lon="1.62566">
        <ele>278.9</ele>
        <time>2016-09-29T12:16:20Z</time>
      </trkpt>
      <trkpt lat="44.37045" lon="1.62556">
        <ele>279.4</ele>
        <time>2016-09-29T12:16:29Z</time>
      </trkpt>
      <trkpt lat="44.37052" lon="1.62546">
        <ele>279.7</ele>
        <time>2016-09-29T12:16:37Z</time>
      </trkpt>
      <trkpt lat="44.37059" lon="1.62536">
        <ele>279.7</ele>
        <time>2016-09-29T12:16:45Z</time>
      </trkpt>
      <trkpt lat="44.37066" lon="1.62526">
        <ele>279.9</ele>
        <time>2016-09-29T12:16:53Z</time>
      </trkpt>
      <trkpt lat="44.37072" lon="1.62517">
        <ele>279.8</ele>
        <time>2016-09-29T12:17:01Z</time>
      </trkpt>
      <trkpt lat="44.37079" lon="1.62508">
        <ele>279.7</ele>
        <time>2016-09-29T12:17:09Z</time>
      </trkpt>
      <trkpt lat="44.37084" lon="1.62497">
        <ele>279.5</ele>
        <time>2016-09-29T12:17:17Z</time>
      </trkpt>
      <trkpt lat="44.37089" lon="1.62486">
        <ele>279.4</ele>
        <time>2016-09-29T12:17:25Z</time>
      </trkpt>
      <trkpt lat="44.37094" lon="1.62474">
        <ele>279.4</ele>
        <time>2016-09-29T12:17:33Z</time>
      </trkpt>
      <trkpt lat="44.37098" lon="1.62462">
        <ele>279.5</ele>
        <time>2016-09-29T12:17:41Z</time>
      </trkpt>
      <trkpt lat="44.37101" lon="1.6245">
        <ele>279.7</ele>
        <time>2016-09-29T12:17:50Z</time>
      </trkpt>
      <trkpt lat="44.37103" lon="1.62436">
        <ele>279.6</ele>
        <time>2016-09-29T12:17:58Z</time>
      </trkpt>
      <trkpt lat="44.37105" lon="1.62424">
        <ele>279.6</ele>
        <time>2016-09-29T12:18:06Z</time>
      </trkpt>
      <trkpt lat="44.37107" lon="1.62412">
        <ele>279.6</ele>
        <time>2016-09-29T12:18:14Z</time>
      </trkpt>
      <trkpt lat="44.37108" lon="1.62398">
        <ele>279.5</ele>
        <time>2016-09-29T12:18:21Z</time>
      </trkpt>
      <trkpt lat="44.3711" lon="1.62386">
        <ele>279.5</ele>
        <time>2016-09-29T12:18:30Z</time>
      </trkpt>
      <trkpt lat="44.37115" lon="1.62373">
        <ele>279.2</ele>
        <time>2016-09-29T12:18:38Z</time>
      </trkpt>
      <trkpt lat="44.37119" lon="1.62362">
        <ele>279.3</ele>
        <time>2016-09-29T12:18:45Z</time>
      </trkpt>
      <trkpt lat="44.37124" lon="1.6235">
        <ele>279.3</ele>
        <time>2016-09-29T12:18:53Z</time>
      </trkpt>
      <trkpt lat="44.37129" lon="1.62338">
        <ele>279.1</ele>
        <time>2016-09-29T12:19:01Z</time>
      </trkpt>
      <trkpt lat="44.37136" lon="1.62328">
        <ele>278.8</ele>
        <time>2016-09-29T12:19:09Z</time>
      </trkpt>
      <trkpt lat="44.37145" lon="1.62321">
        <ele>278.6</ele>
        <time>2016-09-29T12:19:18Z</time>
      </trkpt>
      <trkpt lat="44.37154" lon="1.62316">
        <ele>278.5</ele>
        <time>2016-09-29T12:19:27Z</time>
      </trkpt>
      <trkpt lat="44.37162" lon="1.62311">
        <ele>278.3</ele>
        <time>2016-09-29T12:19:36Z</time>
      </trkpt>
      <trkpt lat="44.37171" lon="1.62305">
        <ele>278.1</ele>
        <time>2016-09-29T12:19:45Z</time>
      </trkpt>
      <trkpt lat="44.3718" lon="1.62301">
        <ele>277.7</ele>
        <time>2016-09-29T12:19:54Z</time>
      </trkpt>
      <trkpt lat="44.37188" lon="1.62296">
        <ele>277.3</ele>
        <time>2016-09-29T12:20:02Z</time>
      </trkpt>
      <trkpt lat="44.37197" lon="1.62289">
        <ele>277.2</ele>
        <time>2016-09-29T12:20:10Z</time>
      </trkpt>
      <trkpt lat="44.37205" lon="1.62282">
        <ele>277.2</ele>
        <time>2016-09-29T12:20:18Z</time>
      </trkpt>
      <trkpt lat="44.37212" lon="1.62274">
        <ele>277.2</ele>
        <time>2016-09-29T12:20:26Z</time>
      </trkpt>
      <trkpt lat="44.37218" lon="1.62264">
        <ele>276.9</ele>
        <time>2016-09-29T12:20:35Z</time>
      </trkpt>
      <trkpt lat="44.37224" lon="1.62253">
        <ele>276.8</ele>
        <time>2016-09-29T12:20:44Z</time>
      </trkpt>
      <trkpt lat="44.37229" lon="1.62242">
        <ele>276.9</ele>
        <time>2016-09-29T12:20:53Z</time>
      </trkpt>
      <trkpt lat="44.37234" lon="1.6223">
        <ele>277</ele>
        <time>2016-09-29T12:21:02Z</time>
      </trkpt>
      <trkpt lat="44.37238" lon="1.62218">
        <ele>276.8</ele>
        <time>2016-09-29T12:21:10Z</time>
      </trkpt>
      <trkpt lat="44.37244" lon="1.62207">
        <ele>276.7</ele>
        <time>2016-09-29T12:21:18Z</time>
      </trkpt>
      <trkpt lat="44.37249" lon="1.62195">
        <ele>276.6</ele>
        <time>2016-09-29T12:21:26Z</time>
      </trkpt>
      <trkpt lat="44.37255" lon="1.62185">
        <ele>276.6</ele>
        <time>2016-09-29T12:21:36Z</time>
      </trkpt>
      <trkpt lat="44.37262" lon="1.62177">
        <ele>276.3</ele>
        <time>2016-09-29T12:21:46Z</time>
      </trkpt>
      <trkpt lat="44.3727" lon="1.6217">
        <ele>276.1</ele>
        <time>2016-09-29T12:21:57Z</time>
      </trkpt>
      <trkpt lat="44.37278" lon="1.62163">
        <ele>276</ele>
        <time>2016-09-29T12:22:07Z</time>
      </trkpt>
      <trkpt lat="44.37287" lon="1.62155">
        <ele>275.9</ele>
        <time>2016-09-29T12:22:16Z</time>
      </trkpt>
      <trkpt lat="44.37295" lon="1.62149">
        <ele>275.4</ele>
        <time>2016-09-29T12:22:26Z</time>
      </trkpt>
      <trkpt lat="44.37303" lon="1.62142">
        <ele>274.9</ele>
        <time>2016-09-29T12:22:35Z</time>
      </trkpt>
      <trkpt lat="44.37311" lon="1.62133">
        <ele>274.7</ele>
        <time>2016-09-29T12:22:43Z</time>
      </trkpt>
      <trkpt lat="44.37317" lon="1.62123">
        <ele>274.3</ele>
        <time>2016-09-29T12:22:51Z</time>
      </trkpt>
      <trkpt lat="44.37323" lon="1.62112">
        <ele>273.7</ele>
        <time>2016-09-29T12:22:59Z</time>
      </trkpt>
      <trkpt lat="44.37331" lon="1.62103">
        <ele>273.7</ele>
        <time>2016-09-29T12:23:08Z</time>
      </trkpt>
      <trkpt lat="44.37337" lon="1.62093">
        <ele>273.6</ele>
        <time>2016-09-29T12:23:17Z</time>
      </trkpt>
      <trkpt lat="44.37343" lon="1.62083">
        <ele>273.1</ele>
        <time>2016-09-29T12:23:26Z</time>
      </trkpt>
      <trkpt lat="44.37349" lon="1.62072">
        <ele>272.8</ele>
        <time>2016-09-29T12:23:34Z</time>
      </trkpt>
      <trkpt lat="44.37354" lon="1.62062">
        <ele>272.5</ele>
        <time>2016-09-29T12:23:42Z</time>
      </trkpt>
      <trkpt lat="44.3736" lon="1.62051">
        <ele>272.3</ele>
        <time>2016-09-29T12:23:51Z</time>
      </trkpt>
      <trkpt lat="44.37367" lon="1.62042">
        <ele>272.3</ele>
        <time>2016-09-29T12:24:01Z</time>
      </trkpt>
      <trkpt lat="44.37374" lon="1.62033">
        <ele>272.2</ele>
        <time>2016-09-29T12:24:10Z</time>
      </trkpt>
      <trkpt lat="44.37382" lon="1.62023">
        <ele>272.1</ele>
        <time>2016-09-29T12:24:19Z</time>
      </trkpt>
      <trkpt lat="44.37388" lon="1.62014">
        <ele>272</ele>
        <time>2016-09-29T12:24:27Z</time>
      </trkpt>
      <trkpt lat="44.37397" lon="1.62007">
        <ele>271.7</ele>
        <time>2016-09-29T12:24:36Z</time>
      </trkpt>
      <trkpt lat="44.37405" lon="1.62002">
        <ele>271.2</ele>
        <time>2016-09-29T12:24:46Z</time>
      </trkpt>
      <trkpt lat="44.37414" lon="1.61997">
        <ele>271</ele>
        <time>2016-09-29T12:24:56Z</time>
      </trkpt>
      <trkpt lat="44.37423" lon="1.61992">
        <ele>271.2</ele>
        <time>2016-09-29T12:25:06Z</time>
      </trkpt>
      <trkpt lat="44.37431" lon="1.61988">
        <ele>271.3</ele>
        <time>2016-09-29T12:25:15Z</time>
      </trkpt>
      <trkpt lat="44.3744" lon="1.61981">
        <ele>271.2</ele>
        <time>2016-09-29T12:25:24Z</time>
      </trkpt>
      <trkpt lat="44.37447" lon="1.61974">
        <ele>270.9</ele>
        <time>2016-09-29T12:25:32Z</time>
      </trkpt>
      <trkpt lat="44.37455" lon="1.61966">
        <ele>270.7</ele>
        <time>2016-09-29T12:25:40Z</time>
      </trkpt>
      <trkpt lat="44.37462" lon="1.61957">
        <ele>270.5</ele>
        <time>2016-09-29T12:25:48Z</time>
      </trkpt>
      <trkpt lat="44.3747" lon="1.61948">
        <ele>270.4</ele>
        <time>2016-09-29T12:25:56Z</time>
      </trkpt>
      <trkpt lat="44.37477" lon="1.61939">
        <ele>270.4</ele>
        <time>2016-09-29T12:26:04Z</time>
      </trkpt>
      <trkpt lat="44.37483" lon="1.61929">
        <ele>270.2</ele>
        <time>2016-09-29T12:26:12Z</time>
      </trkpt>
      <trkpt lat="44.3749" lon="1.61919">
        <ele>269.9</ele>
        <time>2016-09-29T12:26:21Z</time>
      </trkpt>
      <trkpt lat="44.37495" lon="1.61908">
        <ele>269.6</ele>
        <time>2016-09-29T12:26:30Z</time>
      </trkpt>
      <trkpt lat="44.37501" lon="1.61896">
        <ele>269.8</ele>
        <time>2016-09-29T12:26:39Z</time>
      </trkpt>
      <trkpt lat="44.37504" lon="1.61885">
        <ele>269.8</ele>
        <time>2016-09-29T12:26:47Z</time>
      </trkpt>
      <trkpt lat="44.37507" lon="1.61871">
        <ele>269.7</ele>
        <time>2016-09-29T12:26:55Z</time>
      </trkpt>
      <trkpt lat="44.37509" lon="1.61858">
        <ele>269.6</ele>
        <time>2016-09-29T12:27:02Z</time>
      </trkpt>
      <trkpt lat="44.37512" lon="1.61845">
        <ele>269.8</ele>
        <time>2016-09-29T12:27:10Z</time>
      </trkpt>
      <trkpt lat="44.37515" lon="1.61831">
        <ele>269.8</ele>
        <time>2016-09-29T12:27:19Z</time>
      </trkpt>
      <trkpt lat="44.37517" lon="1.61817">
        <ele>269.8</ele>
        <time>2016-09-29T12:27:28Z</time>
      </trkpt>
      <trkpt lat="44.37518" lon="1.61804">
        <ele>270.2</ele>
        <time>2016-09-29T12:27:36Z</time>
      </trkpt>
      <trkpt lat="44.37517" lon="1.6179">
        <ele>269.7</ele>
        <time>2016-09-29T12:27:46Z</time>
      </trkpt>
      <trkpt lat="44.37516" lon="1.61776">
        <ele>269.1</ele>
        <time>2016-09-29T12:27:55Z</time>
      </trkpt>
      <trkpt lat="44.37517" lon="1.61763">
        <ele>268.9</ele>
        <time>2016-09-29T12:28:03Z</time>
      </trkpt>
      <trkpt lat="44.37519" lon="1.61749">
        <ele>268.5</ele>
        <time>2016-09-29T12:28:12Z</time>
      </trkpt>
      <trkpt lat="44.37522" lon="1.61737">
        <ele>268.3</ele>
        <time>2016-09-29T12:28:20Z</time>
      </trkpt>
      <trkpt lat="44.37526" lon="1.61724">
        <ele>268.1</ele>
        <time>2016-09-29T12:28:29Z</time>
      </trkpt>
      <trkpt lat="44.37528" lon="1.61712">
        <ele>268</ele>
        <time>2016-09-29T12:28:36Z</time>
      </trkpt>
      <trkpt lat="44.37531" lon="1.61699">
        <ele>267.9</ele>
        <time>2016-09-29T12:28:45Z</time>
      </trkpt>
      <trkpt lat="44.37533" lon="1.61686">
        <ele>267.9</ele>
        <time>2016-09-29T12:28:53Z</time>
      </trkpt>
      <trkpt lat="44.37537" lon="1.61674">
        <ele>268.2</ele>
        <time>2016-09-29T12:29:01Z</time>
      </trkpt>
      <trkpt lat="44.37542" lon="1.61664">
        <ele>268.4</ele>
        <time>2016-09-29T12:29:08Z</time>
      </trkpt>
      <trkpt lat="44.37548" lon="1.61654">
        <ele>267.8</ele>
        <time>2016-09-29T12:29:15Z</time>
      </trkpt>
      <trkpt lat="44.37555" lon="1.61643">
        <ele>267.4</ele>
        <time>2016-09-29T12:29:24Z</time>
      </trkpt>
      <trkpt lat="44.37561" lon="1.61634">
        <ele>267.3</ele>
        <time>2016-09-29T12:29:32Z</time>
      </trkpt>
      <trkpt lat="44.37567" lon="1.61625">
        <ele>267.2</ele>
        <time>2016-09-29T12:29:40Z</time>
      </trkpt>
      <trkpt lat="44.37573" lon="1.61616">
        <ele>267.4</ele>
        <time>2016-09-29T12:29:49Z</time>
      </trkpt>
      <trkpt lat="44.3758" lon="1.61607">
        <ele>267.4</ele>
        <time>2016-09-29T12:29:58Z</time>
      </trkpt>
      <trkpt lat="44.37586" lon="1.61596">
        <ele>267.3</ele>
        <time>2016-09-29T12:30:06Z</time>
      </trkpt>
      <trkpt lat="44.37592" lon="1.61586">
        <ele>267.2</ele>
        <time>2016-09-29T12:30:14Z</time>
      </trkpt>
      <trkpt lat="44.37599" lon="1.61576">
        <ele>267</ele>
        <time>2016-09-29T12:30:24Z</time>
      </trkpt>
      <trkpt lat="44.37606" lon="1.61567">
        <ele>266.8</ele>
        <time>2016-09-29T12:30:34Z</time>
      </trkpt>
      <trkpt lat="44.37613" lon="1.61559">
        <ele>267</ele>
        <time>2016-09-29T12:30:44Z</time>
      </trkpt>
      <trkpt lat="44.37619" lon="1.61549">
        <ele>266.9</ele>
        <time>2016-09-29T12:30:53Z</time>
      </trkpt>
      <trkpt lat="44.37625" lon="1.61539">
        <ele>266.5</ele>
        <time>2016-09-29T12:31:02Z</time>
      </trkpt>
      <trkpt lat="44.37632" lon="1.6153">
        <ele>266.6</ele>
        <time>2016-09-29T12:31:11Z</time>
      </trkpt>
      <trkpt lat="44.37638" lon="1.61521">
        <ele>266.7</ele>
        <time>2016-09-29T12:31:20Z</time>
      </trkpt>
      <trkpt lat="44.37645" lon="1.61513">
        <ele>266.8</ele>
        <time>2016-09-29T12:31:28Z</time>
      </trkpt>
      <trkpt lat="44.37653" lon="1.61506">
        <ele>266.8</ele>
        <time>2016-09-29T12:31:35Z</time>
      </trkpt>
      <trkpt lat="44.3766" lon="1.61499">
        <ele>266.8</ele>
        <time>2016-09-29T12:31:44Z</time>
      </trkpt>
      <trkpt lat="44.37668" lon="1.61489">
        <ele>266.8</ele>
        <time>2016-09-29T12:31:53Z</time>
      </trkpt>
      <trkpt lat="44.3767" lon="1.61476">
        <ele>267.1</ele>
        <time>2016-09-29T12:32:12Z</time>
      </trkpt>
      <trkpt lat="44.37678" lon="1.61472">
        <ele>267.4</ele>
        <time>2016-09-29T12:33:11Z</time>
      </trkpt>
      <trkpt lat="44.37685" lon="1.61464">
        <ele>267.9</ele>
        <time>2016-09-29T12:33:23Z</time>
      </trkpt>
      <trkpt lat="44.37692" lon="1.61455">
        <ele>268</ele>
        <time>2016-09-29T12:33:32Z</time>
      </trkpt>
      <trkpt lat="44.37699" lon="1.61446">
        <ele>267.7</ele>
        <time>2016-09-29T12:33:40Z</time>
      </trkpt>
      <trkpt lat="44.37706" lon="1.61438">
        <ele>267.4</ele>
        <time>2016-09-29T12:33:48Z</time>
      </trkpt>
      <trkpt lat="44.37714" lon="1.61431">
        <ele>267.2</ele>
        <time>2016-09-29T12:33:55Z</time>
      </trkpt>
      <trkpt lat="44.37723" lon="1.61426">
        <ele>267.1</ele>
        <time>2016-09-29T12:34:02Z</time>
      </trkpt>
      <trkpt lat="44.37732" lon="1.61421">
        <ele>266.9</ele>
        <time>2016-09-29T12:34:08Z</time>
      </trkpt>
      <trkpt lat="44.37741" lon="1.61417">
        <ele>266.5</ele>
        <time>2016-09-29T12:34:14Z</time>
      </trkpt>
      <trkpt lat="44.37751" lon="1.61415">
        <ele>266.1</ele>
        <time>2016-09-29T12:34:21Z</time>
      </trkpt>
      <trkpt lat="44.37761" lon="1.61414">
        <ele>265.9</ele>
        <time>2016-09-29T12:34:27Z</time>
      </trkpt>
      <trkpt lat="44.3777" lon="1.61413">
        <ele>265.7</ele>
        <time>2016-09-29T12:34:33Z</time>
      </trkpt>
      <trkpt lat="44.3778" lon="1.61413">
        <ele>265.4</ele>
        <time>2016-09-29T12:34:39Z</time>
      </trkpt>
      <trkpt lat="44.3779" lon="1.61414">
        <ele>264.8</ele>
        <time>2016-09-29T12:34:46Z</time>
      </trkpt>
      <trkpt lat="44.378" lon="1.61417">
        <ele>264.2</ele>
        <time>2016-09-29T12:34:53Z</time>
      </trkpt>
      <trkpt lat="44.37809" lon="1.61421">
        <ele>263.5</ele>
        <time>2016-09-29T12:35:06Z</time>
      </trkpt>
      <trkpt lat="44.37817" lon="1.61425">
        <ele>263</ele>
        <time>2016-09-29T12:35:23Z</time>
      </trkpt>
      <trkpt lat="44.37826" lon="1.61424">
        <ele>262.9</ele>
        <time>2016-09-29T12:36:32Z</time>
      </trkpt>
      <trkpt lat="44.37832" lon="1.61413">
        <ele>262.8</ele>
        <time>2016-09-29T12:37:09Z</time>
      </trkpt>
      <trkpt lat="44.37836" lon="1.61401">
        <ele>262.6</ele>
        <time>2016-09-29T12:37:21Z</time>
      </trkpt>
      <trkpt lat="44.37843" lon="1.61392">
        <ele>262.6</ele>
        <time>2016-09-29T12:37:30Z</time>
      </trkpt>
      <trkpt lat="44.3785" lon="1.61383">
        <ele>262.5</ele>
        <time>2016-09-29T12:37:39Z</time>
      </trkpt>
      <trkpt lat="44.37857" lon="1.61376">
        <ele>262</ele>
        <time>2016-09-29T12:37:47Z</time>
      </trkpt>
      <trkpt lat="44.37865" lon="1.61368">
        <ele>262.2</ele>
        <time>2016-09-29T12:37:56Z</time>
      </trkpt>
      <trkpt lat="44.37872" lon="1.61359">
        <ele>262.2</ele>
        <time>2016-09-29T12:38:05Z</time>
      </trkpt>
      <trkpt lat="44.37879" lon="1.6135">
        <ele>262.3</ele>
        <time>2016-09-29T12:38:15Z</time>
      </trkpt>
      <trkpt lat="44.37885" lon="1.6134">
        <ele>261.9</ele>
        <time>2016-09-29T12:38:23Z</time>
      </trkpt>
      <trkpt lat="44.37891" lon="1.6133">
        <ele>261.6</ele>
        <time>2016-09-29T12:38:31Z</time>
      </trkpt>
      <trkpt lat="44.37899" lon="1.61322">
        <ele>261.5</ele>
        <time>2016-09-29T12:38:38Z</time>
      </trkpt>
      <trkpt lat="44.37907" lon="1.61314">
        <ele>261.5</ele>
        <time>2016-09-29T12:38:47Z</time>
      </trkpt>
      <trkpt lat="44.37915" lon="1.61306">
        <ele>261.5</ele>
        <time>2016-09-29T12:38:55Z</time>
      </trkpt>
      <trkpt lat="44.37923" lon="1.61298">
        <ele>261.5</ele>
        <time>2016-09-29T12:39:03Z</time>
      </trkpt>
      <trkpt lat="44.3793" lon="1.6129">
        <ele>261.6</ele>
        <time>2016-09-29T12:39:11Z</time>
      </trkpt>
      <trkpt lat="44.37937" lon="1.6128">
        <ele>261.5</ele>
        <time>2016-09-29T12:39:20Z</time>
      </trkpt>
      <trkpt lat="44.37943" lon="1.61271">
        <ele>261.4</ele>
        <time>2016-09-29T12:39:28Z</time>
      </trkpt>
      <trkpt lat="44.37949" lon="1.6126">
        <ele>261.4</ele>
        <time>2016-09-29T12:39:37Z</time>
      </trkpt>
      <trkpt lat="44.37953" lon="1.61248">
        <ele>261.7</ele>
        <time>2016-09-29T12:39:47Z</time>
      </trkpt>
      <trkpt lat="44.37954" lon="1.61234">
        <ele>261.9</ele>
        <time>2016-09-29T12:39:57Z</time>
      </trkpt>
      <trkpt lat="44.37953" lon="1.61221">
        <ele>262.1</ele>
        <time>2016-09-29T12:40:06Z</time>
      </trkpt>
      <trkpt lat="44.37953" lon="1.61207">
        <ele>262.7</ele>
        <time>2016-09-29T12:40:14Z</time>
      </trkpt>
      <trkpt lat="44.37952" lon="1.61194">
        <ele>263.4</ele>
        <time>2016-09-29T12:40:22Z</time>
      </trkpt>
      <trkpt lat="44.37952" lon="1.61182">
        <ele>263.4</ele>
        <time>2016-09-29T12:40:30Z</time>
      </trkpt>
      <trkpt lat="44.37952" lon="1.61168">
        <ele>263.4</ele>
        <time>2016-09-29T12:40:38Z</time>
      </trkpt>
      <trkpt lat="44.37952" lon="1.61155">
        <ele>263.3</ele>
        <time>2016-09-29T12:40:46Z</time>
      </trkpt>
      <trkpt lat="44.37952" lon="1.61142">
        <ele>263.3</ele>
        <time>2016-09-29T12:40:54Z</time>
      </trkpt>
      <trkpt lat="44.37953" lon="1.61129">
        <ele>263.2</ele>
        <time>2016-09-29T12:41:01Z</time>
      </trkpt>
      <trkpt lat="44.37954" lon="1.61116">
        <ele>262.9</ele>
        <time>2016-09-29T12:41:09Z</time>
      </trkpt>
      <trkpt lat="44.37954" lon="1.61103">
        <ele>262.3</ele>
        <time>2016-09-29T12:41:17Z</time>
      </trkpt>
      <trkpt lat="44.37956" lon="1.6109">
        <ele>261.9</ele>
        <time>2016-09-29T12:41:25Z</time>
      </trkpt>
      <trkpt lat="44.37958" lon="1.61078">
        <ele>261.6</ele>
        <time>2016-09-29T12:41:35Z</time>
      </trkpt>
      <trkpt lat="44.37962" lon="1.61066">
        <ele>260.9</ele>
        <time>2016-09-29T12:41:45Z</time>
      </trkpt>
      <trkpt lat="44.37967" lon="1.61054">
        <ele>260.3</ele>
        <time>2016-09-29T12:41:54Z</time>
      </trkpt>
      <trkpt lat="44.37969" lon="1.61042">
        <ele>259.8</ele>
        <time>2016-09-29T12:42:02Z</time>
      </trkpt>
      <trkpt lat="44.37969" lon="1.61029">
        <ele>259.5</ele>
        <time>2016-09-29T12:42:11Z</time>
      </trkpt>
      <trkpt lat="44.37967" lon="1.61015">
        <ele>259.2</ele>
        <time>2016-09-29T12:42:19Z</time>
      </trkpt>
      <trkpt lat="44.37963" lon="1.61002">
        <ele>258.6</ele>
        <time>2016-09-29T12:42:28Z</time>
      </trkpt>
      <trkpt lat="44.37958" lon="1.6099">
        <ele>258</ele>
        <time>2016-09-29T12:42:36Z</time>
      </trkpt>
      <trkpt lat="44.37952" lon="1.6098">
        <ele>257.5</ele>
        <time>2016-09-29T12:42:44Z</time>
      </trkpt>
      <trkpt lat="44.37947" lon="1.60969">
        <ele>256.8</ele>
        <time>2016-09-29T12:42:53Z</time>
      </trkpt>
      <trkpt lat="44.37941" lon="1.60958">
        <ele>256.2</ele>
        <time>2016-09-29T12:43:02Z</time>
      </trkpt>
      <trkpt lat="44.37935" lon="1.60948">
        <ele>255.6</ele>
        <time>2016-09-29T12:43:10Z</time>
      </trkpt>
      <trkpt lat="44.37929" lon="1.60937">
        <ele>254.6</ele>
        <time>2016-09-29T12:43:19Z</time>
      </trkpt>
      <trkpt lat="44.37924" lon="1.60926">
        <ele>253.8</ele>
        <time>2016-09-29T12:43:28Z</time>
      </trkpt>
      <trkpt lat="44.3792" lon="1.60913">
        <ele>252.4</ele>
        <time>2016-09-29T12:43:37Z</time>
      </trkpt>
      <trkpt lat="44.37917" lon="1.609">
        <ele>251</ele>
        <time>2016-09-29T12:43:47Z</time>
      </trkpt>
      <trkpt lat="44.37915" lon="1.60887">
        <ele>250.2</ele>
        <time>2016-09-29T12:43:57Z</time>
      </trkpt>
      <trkpt lat="44.37912" lon="1.60875">
        <ele>249.7</ele>
        <time>2016-09-29T12:44:06Z</time>
      </trkpt>
      <trkpt lat="44.37906" lon="1.60864">
        <ele>248.9</ele>
        <time>2016-09-29T12:44:14Z</time>
      </trkpt>
      <trkpt lat="44.37901" lon="1.60854">
        <ele>248.1</ele>
        <time>2016-09-29T12:44:22Z</time>
      </trkpt>
      <trkpt lat="44.37896" lon="1.60843">
        <ele>247.4</ele>
        <time>2016-09-29T12:44:30Z</time>
      </trkpt>
      <trkpt lat="44.3789" lon="1.60833">
        <ele>246.6</ele>
        <time>2016-09-29T12:44:38Z</time>
      </trkpt>
      <trkpt lat="44.37884" lon="1.60823">
        <ele>246.1</ele>
        <time>2016-09-29T12:44:46Z</time>
      </trkpt>
      <trkpt lat="44.37878" lon="1.60813">
        <ele>244.8</ele>
        <time>2016-09-29T12:44:54Z</time>
      </trkpt>
      <trkpt lat="44.37872" lon="1.60803">
        <ele>244</ele>
        <time>2016-09-29T12:45:01Z</time>
      </trkpt>
      <trkpt lat="44.37865" lon="1.60795">
        <ele>243.2</ele>
        <time>2016-09-29T12:45:09Z</time>
      </trkpt>
      <trkpt lat="44.37857" lon="1.60789">
        <ele>242.2</ele>
        <time>2016-09-29T12:45:17Z</time>
      </trkpt>
      <trkpt lat="44.37849" lon="1.60783">
        <ele>241.3</ele>
        <time>2016-09-29T12:45:24Z</time>
      </trkpt>
      <trkpt lat="44.3784" lon="1.60776">
        <ele>240.2</ele>
        <time>2016-09-29T12:45:32Z</time>
      </trkpt>
      <trkpt lat="44.37832" lon="1.6077">
        <ele>239.4</ele>
        <time>2016-09-29T12:45:40Z</time>
      </trkpt>
      <trkpt lat="44.37827" lon="1.60759">
        <ele>237.5</ele>
        <time>2016-09-29T12:46:01Z</time>
      </trkpt>
      <trkpt lat="44.37822" lon="1.60749">
        <ele>237</ele>
        <time>2016-09-29T12:46:31Z</time>
      </trkpt>
      <trkpt lat="44.37814" lon="1.6074">
        <ele>236.2</ele>
        <time>2016-09-29T12:46:45Z</time>
      </trkpt>
      <trkpt lat="44.37805" lon="1.60736">
        <ele>235.8</ele>
        <time>2016-09-29T12:46:56Z</time>
      </trkpt>
      <trkpt lat="44.37796" lon="1.60733">
        <ele>235.2</ele>
        <time>2016-09-29T12:47:05Z</time>
      </trkpt>
      <trkpt lat="44.37786" lon="1.60731">
        <ele>234.4</ele>
        <time>2016-09-29T12:47:14Z</time>
      </trkpt>
      <trkpt lat="44.37776" lon="1.60728">
        <ele>233.2</ele>
        <time>2016-09-29T12:47:23Z</time>
      </trkpt>
      <trkpt lat="44.37767" lon="1.60728">
        <ele>232.1</ele>
        <time>2016-09-29T12:47:31Z</time>
      </trkpt>
      <trkpt lat="44.37758" lon="1.60727">
        <ele>230.8</ele>
        <time>2016-09-29T12:47:39Z</time>
      </trkpt>
      <trkpt lat="44.37748" lon="1.60723">
        <ele>230</ele>
        <time>2016-09-29T12:47:48Z</time>
      </trkpt>
      <trkpt lat="44.37739" lon="1.6072">
        <ele>229.7</ele>
        <time>2016-09-29T12:47:56Z</time>
      </trkpt>
      <trkpt lat="44.3773" lon="1.60717">
        <ele>229.3</ele>
        <time>2016-09-29T12:48:05Z</time>
      </trkpt>
      <trkpt lat="44.37721" lon="1.60716">
        <ele>229.1</ele>
        <time>2016-09-29T12:48:13Z</time>
      </trkpt>
      <trkpt lat="44.37712" lon="1.60713">
        <ele>229</ele>
        <time>2016-09-29T12:48:21Z</time>
      </trkpt>
      <trkpt lat="44.37703" lon="1.6071">
        <ele>229</ele>
        <time>2016-09-29T12:48:29Z</time>
      </trkpt>
      <trkpt lat="44.37693" lon="1.60707">
        <ele>229</ele>
        <time>2016-09-29T12:48:37Z</time>
      </trkpt>
      <trkpt lat="44.37684" lon="1.60706">
        <ele>229.1</ele>
        <time>2016-09-29T12:48:45Z</time>
      </trkpt>
      <trkpt lat="44.37674" lon="1.60705">
        <ele>229.5</ele>
        <time>2016-09-29T12:48:54Z</time>
      </trkpt>
      <trkpt lat="44.37665" lon="1.60704">
        <ele>229.9</ele>
        <time>2016-09-29T12:49:02Z</time>
      </trkpt>
      <trkpt lat="44.37656" lon="1.60704">
        <ele>230.7</ele>
        <time>2016-09-29T12:49:11Z</time>
      </trkpt>
      <trkpt lat="44.37646" lon="1.60702">
        <ele>231.5</ele>
        <time>2016-09-29T12:49:20Z</time>
      </trkpt>
      <trkpt lat="44.37637" lon="1.60699">
        <ele>232.2</ele>
        <time>2016-09-29T12:49:29Z</time>
      </trkpt>
      <trkpt lat="44.37629" lon="1.60695">
        <ele>232.9</ele>
        <time>2016-09-29T12:49:38Z</time>
      </trkpt>
      <trkpt lat="44.37619" lon="1.60689">
        <ele>234.1</ele>
        <time>2016-09-29T12:49:47Z</time>
      </trkpt>
      <trkpt lat="44.37611" lon="1.60686">
        <ele>235.1</ele>
        <time>2016-09-29T12:49:56Z</time>
      </trkpt>
      <trkpt lat="44.37602" lon="1.60683">
        <ele>235.9</ele>
        <time>2016-09-29T12:50:06Z</time>
      </trkpt>
      <trkpt lat="44.37593" lon="1.60679">
        <ele>236.5</ele>
        <time>2016-09-29T12:50:14Z</time>
      </trkpt>
      <trkpt lat="44.37584" lon="1.60675">
        <ele>237.5</ele>
        <time>2016-09-29T12:50:23Z</time>
      </trkpt>
      <trkpt lat="44.37574" lon="1.60672">
        <ele>238.2</ele>
        <time>2016-09-29T12:50:32Z</time>
      </trkpt>
      <trkpt lat="44.37565" lon="1.60669">
        <ele>238.8</ele>
        <time>2016-09-29T12:50:41Z</time>
      </trkpt>
      <trkpt lat="44.37555" lon="1.60668">
        <ele>239.8</ele>
        <time>2016-09-29T12:50:50Z</time>
      </trkpt>
      <trkpt lat="44.37546" lon="1.60667">
        <ele>240.5</ele>
        <time>2016-09-29T12:50:58Z</time>
      </trkpt>
      <trkpt lat="44.37537" lon="1.60664">
        <ele>240.9</ele>
        <time>2016-09-29T12:51:07Z</time>
      </trkpt>
      <trkpt lat="44.37527" lon="1.60662">
        <ele>241.6</ele>
        <time>2016-09-29T12:51:17Z</time>
      </trkpt>
      <trkpt lat="44.3752" lon="1.60655">
        <ele>242.1</ele>
        <time>2016-09-29T12:51:25Z</time>
      </trkpt>
      <trkpt lat="44.37512" lon="1.60647">
        <ele>242.1</ele>
        <time>2016-09-29T12:51:34Z</time>
      </trkpt>
      <trkpt lat="44.37505" lon="1.60639">
        <ele>242.4</ele>
        <time>2016-09-29T12:51:42Z</time>
      </trkpt>
      <trkpt lat="44.37496" lon="1.60632">
        <ele>242.3</ele>
        <time>2016-09-29T12:51:51Z</time>
      </trkpt>
      <trkpt lat="44.37487" lon="1.60627">
        <ele>242.4</ele>
        <time>2016-09-29T12:51:59Z</time>
      </trkpt>
      <trkpt lat="44.37478" lon="1.60625">
        <ele>242.4</ele>
        <time>2016-09-29T12:52:07Z</time>
      </trkpt>
      <trkpt lat="44.37469" lon="1.60625">
        <ele>242.4</ele>
        <time>2016-09-29T12:52:17Z</time>
      </trkpt>
      <trkpt lat="44.3746" lon="1.60625">
        <ele>242.9</ele>
        <time>2016-09-29T12:52:26Z</time>
      </trkpt>
      <trkpt lat="44.3745" lon="1.60626">
        <ele>243.4</ele>
        <time>2016-09-29T12:52:35Z</time>
      </trkpt>
      <trkpt lat="44.37441" lon="1.60628">
        <ele>244</ele>
        <time>2016-09-29T12:52:43Z</time>
      </trkpt>
      <trkpt lat="44.37431" lon="1.6063">
        <ele>244.3</ele>
        <time>2016-09-29T12:52:52Z</time>
      </trkpt>
      <trkpt lat="44.37421" lon="1.60631">
        <ele>244.2</ele>
        <time>2016-09-29T12:53:01Z</time>
      </trkpt>
      <trkpt lat="44.37412" lon="1.60631">
        <ele>244.3</ele>
        <time>2016-09-29T12:53:08Z</time>
      </trkpt>
      <trkpt lat="44.37403" lon="1.6063">
        <ele>244.2</ele>
        <time>2016-09-29T12:53:15Z</time>
      </trkpt>
      <trkpt lat="44.37393" lon="1.60629">
        <ele>244.2</ele>
        <time>2016-09-29T12:53:23Z</time>
      </trkpt>
      <trkpt lat="44.37383" lon="1.60627">
        <ele>244.2</ele>
        <time>2016-09-29T12:53:32Z</time>
      </trkpt>
      <trkpt lat="44.37374" lon="1.60627">
        <ele>244.2</ele>
        <time>2016-09-29T12:53:40Z</time>
      </trkpt>
      <trkpt lat="44.37365" lon="1.60625">
        <ele>244.1</ele>
        <time>2016-09-29T12:53:48Z</time>
      </trkpt>
      <trkpt lat="44.37355" lon="1.60623">
        <ele>244</ele>
        <time>2016-09-29T12:53:56Z</time>
      </trkpt>
      <trkpt lat="44.37346" lon="1.60618">
        <ele>243.9</ele>
        <time>2016-09-29T12:54:05Z</time>
      </trkpt>
      <trkpt lat="44.37338" lon="1.60613">
        <ele>243.8</ele>
        <time>2016-09-29T12:54:13Z</time>
      </trkpt>
      <trkpt lat="44.37329" lon="1.60608">
        <ele>243.8</ele>
        <time>2016-09-29T12:54:22Z</time>
      </trkpt>
      <trkpt lat="44.3732" lon="1.60602">
        <ele>243.8</ele>
        <time>2016-09-29T12:54:30Z</time>
      </trkpt>
      <trkpt lat="44.37312" lon="1.60596">
        <ele>243.9</ele>
        <time>2016-09-29T12:54:38Z</time>
      </trkpt>
      <trkpt lat="44.37304" lon="1.60589">
        <ele>244</ele>
        <time>2016-09-29T12:54:47Z</time>
      </trkpt>
      <trkpt lat="44.37296" lon="1.60582">
        <ele>244.5</ele>
        <time>2016-09-29T12:54:57Z</time>
      </trkpt>
      <trkpt lat="44.37288" lon="1.60574">
        <ele>245.4</ele>
        <time>2016-09-29T12:55:07Z</time>
      </trkpt>
      <trkpt lat="44.37281" lon="1.60565">
        <ele>246</ele>
        <time>2016-09-29T12:55:16Z</time>
      </trkpt>
      <trkpt lat="44.37274" lon="1.60556">
        <ele>246.6</ele>
        <time>2016-09-29T12:55:24Z</time>
      </trkpt>
      <trkpt lat="44.37267" lon="1.60548">
        <ele>247.3</ele>
        <time>2016-09-29T12:55:33Z</time>
      </trkpt>
      <trkpt lat="44.3726" lon="1.60539">
        <ele>248.1</ele>
        <time>2016-09-29T12:55:42Z</time>
      </trkpt>
      <trkpt lat="44.37253" lon="1.60531">
        <ele>248.6</ele>
        <time>2016-09-29T12:55:50Z</time>
      </trkpt>
      <trkpt lat="44.37245" lon="1.60523">
        <ele>249.5</ele>
        <time>2016-09-29T12:55:59Z</time>
      </trkpt>
      <trkpt lat="44.37237" lon="1.60517">
        <ele>250</ele>
        <time>2016-09-29T12:56:08Z</time>
      </trkpt>
      <trkpt lat="44.37229" lon="1.6051">
        <ele>250.4</ele>
        <time>2016-09-29T12:56:16Z</time>
      </trkpt>
      <trkpt lat="44.37222" lon="1.60503">
        <ele>250.7</ele>
        <time>2016-09-29T12:56:24Z</time>
      </trkpt>
      <trkpt lat="44.37214" lon="1.60495">
        <ele>251</ele>
        <time>2016-09-29T12:56:32Z</time>
      </trkpt>
      <trkpt lat="44.37205" lon="1.60488">
        <ele>251.5</ele>
        <time>2016-09-29T12:56:40Z</time>
      </trkpt>
      <trkpt lat="44.37197" lon="1.6048">
        <ele>251.8</ele>
        <time>2016-09-29T12:56:48Z</time>
      </trkpt>
      <trkpt lat="44.37189" lon="1.60473">
        <ele>251.9</ele>
        <time>2016-09-29T12:56:55Z</time>
      </trkpt>
      <trkpt lat="44.37181" lon="1.60467">
        <ele>251.8</ele>
        <time>2016-09-29T12:57:03Z</time>
      </trkpt>
      <trkpt lat="44.37172" lon="1.6046">
        <ele>251.2</ele>
        <time>2016-09-29T12:57:11Z</time>
      </trkpt>
      <trkpt lat="44.37164" lon="1.60454">
        <ele>250.5</ele>
        <time>2016-09-29T12:57:21Z</time>
      </trkpt>
      <trkpt lat="44.37155" lon="1.60448">
        <ele>250.1</ele>
        <time>2016-09-29T12:57:32Z</time>
      </trkpt>
      <trkpt lat="44.37146" lon="1.60442">
        <ele>249.8</ele>
        <time>2016-09-29T12:57:44Z</time>
      </trkpt>
      <trkpt lat="44.37138" lon="1.60435">
        <ele>250</ele>
        <time>2016-09-29T12:57:53Z</time>
      </trkpt>
      <trkpt lat="44.3713" lon="1.60427">
        <ele>250.2</ele>
        <time>2016-09-29T12:58:02Z</time>
      </trkpt>
      <trkpt lat="44.37123" lon="1.60419">
        <ele>250</ele>
        <time>2016-09-29T12:58:11Z</time>
      </trkpt>
      <trkpt lat="44.37114" lon="1.60413">
        <ele>249.9</ele>
        <time>2016-09-29T12:58:19Z</time>
      </trkpt>
      <trkpt lat="44.37106" lon="1.60407">
        <ele>249.8</ele>
        <time>2016-09-29T12:58:27Z</time>
      </trkpt>
      <trkpt lat="44.37097" lon="1.60402">
        <ele>249.8</ele>
        <time>2016-09-29T12:58:35Z</time>
      </trkpt>
      <trkpt lat="44.37088" lon="1.60396">
        <ele>250</ele>
        <time>2016-09-29T12:58:44Z</time>
      </trkpt>
      <trkpt lat="44.37079" lon="1.60391">
        <ele>250.7</ele>
        <time>2016-09-29T12:58:53Z</time>
      </trkpt>
      <trkpt lat="44.3707" lon="1.60385">
        <ele>251.6</ele>
        <time>2016-09-29T12:59:01Z</time>
      </trkpt>
      <trkpt lat="44.37061" lon="1.60379">
        <ele>252.4</ele>
        <time>2016-09-29T12:59:10Z</time>
      </trkpt>
      <trkpt lat="44.37053" lon="1.60372">
        <ele>253</ele>
        <time>2016-09-29T12:59:19Z</time>
      </trkpt>
      <trkpt lat="44.37044" lon="1.60365">
        <ele>253.6</ele>
        <time>2016-09-29T12:59:27Z</time>
      </trkpt>
      <trkpt lat="44.37036" lon="1.60357">
        <ele>254.2</ele>
        <time>2016-09-29T12:59:35Z</time>
      </trkpt>
      <trkpt lat="44.37027" lon="1.6035">
        <ele>254.8</ele>
        <time>2016-09-29T12:59:43Z</time>
      </trkpt>
      <trkpt lat="44.3702" lon="1.60344">
        <ele>255.1</ele>
        <time>2016-09-29T12:59:51Z</time>
      </trkpt>
      <trkpt lat="44.37011" lon="1.60336">
        <ele>255.6</ele>
        <time>2016-09-29T13:00:00Z</time>
      </trkpt>
      <trkpt lat="44.37002" lon="1.6033">
        <ele>256.3</ele>
        <time>2016-09-29T13:00:09Z</time>
      </trkpt>
      <trkpt lat="44.36994" lon="1.60324">
        <ele>257</ele>
        <time>2016-09-29T13:00:17Z</time>
      </trkpt>
      <trkpt lat="44.36986" lon="1.60317">
        <ele>257.8</ele>
        <time>2016-09-29T13:00:25Z</time>
      </trkpt>
      <trkpt lat="44.36978" lon="1.6031">
        <ele>258.6</ele>
        <time>2016-09-29T13:00:34Z</time>
      </trkpt>
      <trkpt lat="44.3697" lon="1.60302">
        <ele>259.2</ele>
        <time>2016-09-29T13:00:43Z</time>
      </trkpt>
      <trkpt lat="44.36963" lon="1.60294">
        <ele>259.8</ele>
        <time>2016-09-29T13:00:53Z</time>
      </trkpt>
      <trkpt lat="44.36955" lon="1.60284">
        <ele>260.5</ele>
        <time>2016-09-29T13:01:03Z</time>
      </trkpt>
      <trkpt lat="44.36949" lon="1.60273">
        <ele>261.7</ele>
        <time>2016-09-29T13:01:13Z</time>
      </trkpt>
      <trkpt lat="44.36943" lon="1.60262">
        <ele>262.2</ele>
        <time>2016-09-29T13:01:23Z</time>
      </trkpt>
      <trkpt lat="44.36938" lon="1.60252">
        <ele>263.4</ele>
        <time>2016-09-29T13:01:33Z</time>
      </trkpt>
      <trkpt lat="44.36932" lon="1.60242">
        <ele>264.2</ele>
        <time>2016-09-29T13:01:42Z</time>
      </trkpt>
      <trkpt lat="44.36927" lon="1.60231">
        <ele>264.7</ele>
        <time>2016-09-29T13:01:52Z</time>
      </trkpt>
      <trkpt lat="44.36922" lon="1.60219">
        <ele>264.9</ele>
        <time>2016-09-29T13:02:02Z</time>
      </trkpt>
      <trkpt lat="44.36919" lon="1.60207">
        <ele>265.2</ele>
        <time>2016-09-29T13:02:10Z</time>
      </trkpt>
      <trkpt lat="44.36914" lon="1.60195">
        <ele>265.1</ele>
        <time>2016-09-29T13:02:18Z</time>
      </trkpt>
      <trkpt lat="44.3691" lon="1.60183">
        <ele>265</ele>
        <time>2016-09-29T13:02:25Z</time>
      </trkpt>
      <trkpt lat="44.36905" lon="1.60172">
        <ele>265</ele>
        <time>2016-09-29T13:02:32Z</time>
      </trkpt>
      <trkpt lat="44.36901" lon="1.60159">
        <ele>264.9</ele>
        <time>2016-09-29T13:02:39Z</time>
      </trkpt>
      <trkpt lat="44.36897" lon="1.60146">
        <ele>264.8</ele>
        <time>2016-09-29T13:02:46Z</time>
      </trkpt>
      <trkpt lat="44.36893" lon="1.60133">
        <ele>264.7</ele>
        <time>2016-09-29T13:02:53Z</time>
      </trkpt>
      <trkpt lat="44.36889" lon="1.6012">
        <ele>264.6</ele>
        <time>2016-09-29T13:03:01Z</time>
      </trkpt>
      <trkpt lat="44.36886" lon="1.60107">
        <ele>264.3</ele>
        <time>2016-09-29T13:03:09Z</time>
      </trkpt>
      <trkpt lat="44.36882" lon="1.60095">
        <ele>264</ele>
        <time>2016-09-29T13:03:16Z</time>
      </trkpt>
      <trkpt lat="44.36878" lon="1.60082">
        <ele>263.8</ele>
        <time>2016-09-29T13:03:24Z</time>
      </trkpt>
      <trkpt lat="44.36874" lon="1.6007">
        <ele>263.8</ele>
        <time>2016-09-29T13:03:31Z</time>
      </trkpt>
      <trkpt lat="44.36871" lon="1.60056">
        <ele>263.6</ele>
        <time>2016-09-29T13:03:39Z</time>
      </trkpt>
      <trkpt lat="44.36867" lon="1.60043">
        <ele>263.1</ele>
        <time>2016-09-29T13:03:47Z</time>
      </trkpt>
      <trkpt lat="44.36863" lon="1.60031">
        <ele>262.9</ele>
        <time>2016-09-29T13:03:56Z</time>
      </trkpt>
      <trkpt lat="44.36857" lon="1.60021">
        <ele>262.7</ele>
        <time>2016-09-29T13:04:04Z</time>
      </trkpt>
      <trkpt lat="44.36851" lon="1.60011">
        <ele>262.8</ele>
        <time>2016-09-29T13:04:12Z</time>
      </trkpt>
      <trkpt lat="44.36844" lon="1.60001">
        <ele>262.8</ele>
        <time>2016-09-29T13:04:20Z</time>
      </trkpt>
      <trkpt lat="44.36838" lon="1.5999">
        <ele>262.9</ele>
        <time>2016-09-29T13:04:28Z</time>
      </trkpt>
      <trkpt lat="44.36833" lon="1.5998">
        <ele>263</ele>
        <time>2016-09-29T13:04:36Z</time>
      </trkpt>
      <trkpt lat="44.36828" lon="1.5997">
        <ele>263.2</ele>
        <time>2016-09-29T13:04:44Z</time>
      </trkpt>
      <trkpt lat="44.36822" lon="1.59959">
        <ele>263.5</ele>
        <time>2016-09-29T13:04:51Z</time>
      </trkpt>
      <trkpt lat="44.36817" lon="1.59949">
        <ele>263.9</ele>
        <time>2016-09-29T13:04:59Z</time>
      </trkpt>
      <trkpt lat="44.36812" lon="1.59938">
        <ele>264.4</ele>
        <time>2016-09-29T13:05:06Z</time>
      </trkpt>
      <trkpt lat="44.36806" lon="1.59927">
        <ele>264.7</ele>
        <time>2016-09-29T13:05:14Z</time>
      </trkpt>
      <trkpt lat="44.36802" lon="1.59915">
        <ele>264.9</ele>
        <time>2016-09-29T13:05:22Z</time>
      </trkpt>
      <trkpt lat="44.36796" lon="1.59904">
        <ele>265.1</ele>
        <time>2016-09-29T13:05:31Z</time>
      </trkpt>
      <trkpt lat="44.36792" lon="1.59892">
        <ele>265.2</ele>
        <time>2016-09-29T13:05:39Z</time>
      </trkpt>
      <trkpt lat="44.36787" lon="1.59881">
        <ele>265.5</ele>
        <time>2016-09-29T13:05:48Z</time>
      </trkpt>
      <trkpt lat="44.36782" lon="1.59869">
        <ele>266.1</ele>
        <time>2016-09-29T13:05:57Z</time>
      </trkpt>
      <trkpt lat="44.36778" lon="1.59857">
        <ele>266.5</ele>
        <time>2016-09-29T13:06:06Z</time>
      </trkpt>
      <trkpt lat="44.36774" lon="1.59844">
        <ele>266.7</ele>
        <time>2016-09-29T13:06:15Z</time>
      </trkpt>
      <trkpt lat="44.36769" lon="1.59833">
        <ele>267</ele>
        <time>2016-09-29T13:06:22Z</time>
      </trkpt>
      <trkpt lat="44.36765" lon="1.59822">
        <ele>267.4</ele>
        <time>2016-09-29T13:06:30Z</time>
      </trkpt>
      <trkpt lat="44.36761" lon="1.59809">
        <ele>267.8</ele>
        <time>2016-09-29T13:06:38Z</time>
      </trkpt>
      <trkpt lat="44.36757" lon="1.59797">
        <ele>268.2</ele>
        <time>2016-09-29T13:06:54Z</time>
      </trkpt>
      <trkpt lat="44.36749" lon="1.59791">
        <ele>268.9</ele>
        <time>2016-09-29T13:10:47Z</time>
      </trkpt>
      <trkpt lat="44.36747" lon="1.59778">
        <ele>268.5</ele>
        <time>2016-09-29T13:11:34Z</time>
      </trkpt>
      <trkpt lat="44.36743" lon="1.59767">
        <ele>268.5</ele>
        <time>2016-09-29T13:11:46Z</time>
      </trkpt>
      <trkpt lat="44.36739" lon="1.59755">
        <ele>269.1</ele>
        <time>2016-09-29T13:11:56Z</time>
      </trkpt>
      <trkpt lat="44.36735" lon="1.59743">
        <ele>269.3</ele>
        <time>2016-09-29T13:12:07Z</time>
      </trkpt>
      <trkpt lat="44.36731" lon="1.59731">
        <ele>269.5</ele>
        <time>2016-09-29T13:12:17Z</time>
      </trkpt>
      <trkpt lat="44.36726" lon="1.59719">
        <ele>270</ele>
        <time>2016-09-29T13:12:26Z</time>
      </trkpt>
      <trkpt lat="44.3672" lon="1.59709">
        <ele>270.3</ele>
        <time>2016-09-29T13:12:34Z</time>
      </trkpt>
      <trkpt lat="44.36715" lon="1.59699">
        <ele>270.4</ele>
        <time>2016-09-29T13:12:41Z</time>
      </trkpt>
      <trkpt lat="44.36708" lon="1.59688">
        <ele>270.6</ele>
        <time>2016-09-29T13:12:49Z</time>
      </trkpt>
      <trkpt lat="44.36702" lon="1.59677">
        <ele>270.6</ele>
        <time>2016-09-29T13:12:57Z</time>
      </trkpt>
      <trkpt lat="44.36697" lon="1.59666">
        <ele>270.7</ele>
        <time>2016-09-29T13:13:04Z</time>
      </trkpt>
      <trkpt lat="44.36691" lon="1.59656">
        <ele>270.9</ele>
        <time>2016-09-29T13:13:12Z</time>
      </trkpt>
      <trkpt lat="44.36686" lon="1.59646">
        <ele>271</ele>
        <time>2016-09-29T13:13:20Z</time>
      </trkpt>
      <trkpt lat="44.3668" lon="1.59636">
        <ele>271.3</ele>
        <time>2016-09-29T13:13:29Z</time>
      </trkpt>
      <trkpt lat="44.36674" lon="1.59625">
        <ele>271.4</ele>
        <time>2016-09-29T13:13:38Z</time>
      </trkpt>
      <trkpt lat="44.36668" lon="1.59614">
        <ele>271.3</ele>
        <time>2016-09-29T13:13:47Z</time>
      </trkpt>
      <trkpt lat="44.36662" lon="1.59603">
        <ele>271.5</ele>
        <time>2016-09-29T13:13:56Z</time>
      </trkpt>
      <trkpt lat="44.36655" lon="1.59594">
        <ele>271.8</ele>
        <time>2016-09-29T13:14:04Z</time>
      </trkpt>
      <trkpt lat="44.36648" lon="1.59584">
        <ele>271.7</ele>
        <time>2016-09-29T13:14:12Z</time>
      </trkpt>
      <trkpt lat="44.36642" lon="1.59574">
        <ele>272</ele>
        <time>2016-09-29T13:14:20Z</time>
      </trkpt>
      <trkpt lat="44.36637" lon="1.59564">
        <ele>272.5</ele>
        <time>2016-09-29T13:14:28Z</time>
      </trkpt>
      <trkpt lat="44.36632" lon="1.59552">
        <ele>272.8</ele>
        <time>2016-09-29T13:14:37Z</time>
      </trkpt>
      <trkpt lat="44.36628" lon="1.59539">
        <ele>273.5</ele>
        <time>2016-09-29T13:14:45Z</time>
      </trkpt>
      <trkpt lat="44.36622" lon="1.59529">
        <ele>274</ele>
        <time>2016-09-29T13:14:53Z</time>
      </trkpt>
      <trkpt lat="44.36615" lon="1.5952">
        <ele>274.5</ele>
        <time>2016-09-29T13:15:01Z</time>
      </trkpt>
      <trkpt lat="44.36607" lon="1.59512">
        <ele>274.9</ele>
        <time>2016-09-29T13:15:10Z</time>
      </trkpt>
      <trkpt lat="44.366" lon="1.59505">
        <ele>275.2</ele>
        <time>2016-09-29T13:15:18Z</time>
      </trkpt>
      <trkpt lat="44.36593" lon="1.59496">
        <ele>275.8</ele>
        <time>2016-09-29T13:15:27Z</time>
      </trkpt>
      <trkpt lat="44.36586" lon="1.59486">
        <ele>276.5</ele>
        <time>2016-09-29T13:15:36Z</time>
      </trkpt>
      <trkpt lat="44.36579" lon="1.59476">
        <ele>276.4</ele>
        <time>2016-09-29T13:15:45Z</time>
      </trkpt>
      <trkpt lat="44.36573" lon="1.59467">
        <ele>277.2</ele>
        <time>2016-09-29T13:15:53Z</time>
      </trkpt>
      <trkpt lat="44.36565" lon="1.59459">
        <ele>278.1</ele>
        <time>2016-09-29T13:16:02Z</time>
      </trkpt>
      <trkpt lat="44.36558" lon="1.59451">
        <ele>278.5</ele>
        <time>2016-09-29T13:16:11Z</time>
      </trkpt>
      <trkpt lat="44.36552" lon="1.5944">
        <ele>279.2</ele>
        <time>2016-09-29T13:16:25Z</time>
      </trkpt>
      <trkpt lat="44.36545" lon="1.59432">
        <ele>279.6</ele>
        <time>2016-09-29T13:16:34Z</time>
      </trkpt>
      <trkpt lat="44.36538" lon="1.59422">
        <ele>279.9</ele>
        <time>2016-09-29T13:16:44Z</time>
      </trkpt>
      <trkpt lat="44.36531" lon="1.59413">
        <ele>280.3</ele>
        <time>2016-09-29T13:16:54Z</time>
      </trkpt>
      <trkpt lat="44.36524" lon="1.59403">
        <ele>280.7</ele>
        <time>2016-09-29T13:17:03Z</time>
      </trkpt>
      <trkpt lat="44.36517" lon="1.59393">
        <ele>281</ele>
        <time>2016-09-29T13:17:12Z</time>
      </trkpt>
      <trkpt lat="44.3651" lon="1.59383">
        <ele>281.3</ele>
        <time>2016-09-29T13:17:21Z</time>
      </trkpt>
      <trkpt lat="44.36504" lon="1.59374">
        <ele>281.5</ele>
        <time>2016-09-29T13:17:29Z</time>
      </trkpt>
      <trkpt lat="44.36497" lon="1.59363">
        <ele>281.6</ele>
        <time>2016-09-29T13:17:38Z</time>
      </trkpt>
      <trkpt lat="44.36491" lon="1.59353">
        <ele>281.6</ele>
        <time>2016-09-29T13:17:46Z</time>
      </trkpt>
      <trkpt lat="44.36485" lon="1.59344">
        <ele>281.7</ele>
        <time>2016-09-29T13:17:54Z</time>
      </trkpt>
      <trkpt lat="44.36478" lon="1.59334">
        <ele>281.7</ele>
        <time>2016-09-29T13:18:02Z</time>
      </trkpt>
      <trkpt lat="44.3647" lon="1.59326">
        <ele>281.7</ele>
        <time>2016-09-29T13:18:10Z</time>
      </trkpt>
      <trkpt lat="44.36462" lon="1.5932">
        <ele>281.7</ele>
        <time>2016-09-29T13:18:18Z</time>
      </trkpt>
      <trkpt lat="44.36452" lon="1.59317">
        <ele>281.7</ele>
        <time>2016-09-29T13:18:26Z</time>
      </trkpt>
      <trkpt lat="44.36443" lon="1.59314">
        <ele>281.7</ele>
        <time>2016-09-29T13:18:34Z</time>
      </trkpt>
      <trkpt lat="44.36434" lon="1.59314">
        <ele>281.6</ele>
        <time>2016-09-29T13:18:42Z</time>
      </trkpt>
      <trkpt lat="44.36425" lon="1.59312">
        <ele>281.4</ele>
        <time>2016-09-29T13:18:50Z</time>
      </trkpt>
      <trkpt lat="44.36416" lon="1.59308">
        <ele>281</ele>
        <time>2016-09-29T13:18:58Z</time>
      </trkpt>
      <trkpt lat="44.36407" lon="1.59305">
        <ele>280.7</ele>
        <time>2016-09-29T13:19:06Z</time>
      </trkpt>
      <trkpt lat="44.36397" lon="1.59302">
        <ele>280.4</ele>
        <time>2016-09-29T13:19:14Z</time>
      </trkpt>
      <trkpt lat="44.36387" lon="1.593">
        <ele>280.2</ele>
        <time>2016-09-29T13:19:22Z</time>
      </trkpt>
      <trkpt lat="44.36378" lon="1.593">
        <ele>280.1</ele>
        <time>2016-09-29T13:19:30Z</time>
      </trkpt>
      <trkpt lat="44.36368" lon="1.59301">
        <ele>280</ele>
        <time>2016-09-29T13:19:38Z</time>
      </trkpt>
      <trkpt lat="44.36359" lon="1.59301">
        <ele>280.1</ele>
        <time>2016-09-29T13:19:46Z</time>
      </trkpt>
      <trkpt lat="44.36349" lon="1.59302">
        <ele>279.8</ele>
        <time>2016-09-29T13:19:55Z</time>
      </trkpt>
      <trkpt lat="44.3634" lon="1.59303">
        <ele>279.6</ele>
        <time>2016-09-29T13:20:03Z</time>
      </trkpt>
      <trkpt lat="44.36331" lon="1.59304">
        <ele>279.6</ele>
        <time>2016-09-29T13:20:11Z</time>
      </trkpt>
      <trkpt lat="44.36321" lon="1.59304">
        <ele>279.5</ele>
        <time>2016-09-29T13:20:19Z</time>
      </trkpt>
      <trkpt lat="44.36312" lon="1.59304">
        <ele>279.5</ele>
        <time>2016-09-29T13:20:27Z</time>
      </trkpt>
      <trkpt lat="44.36302" lon="1.59304">
        <ele>279.8</ele>
        <time>2016-09-29T13:20:35Z</time>
      </trkpt>
      <trkpt lat="44.36293" lon="1.59303">
        <ele>279.6</ele>
        <time>2016-09-29T13:20:42Z</time>
      </trkpt>
      <trkpt lat="44.36283" lon="1.59303">
        <ele>279.4</ele>
        <time>2016-09-29T13:20:49Z</time>
      </trkpt>
      <trkpt lat="44.36273" lon="1.59304">
        <ele>279.5</ele>
        <time>2016-09-29T13:20:57Z</time>
      </trkpt>
      <trkpt lat="44.36263" lon="1.59306">
        <ele>279.6</ele>
        <time>2016-09-29T13:21:05Z</time>
      </trkpt>
      <trkpt lat="44.36254" lon="1.59308">
        <ele>279.6</ele>
        <time>2016-09-29T13:21:13Z</time>
      </trkpt>
      <trkpt lat="44.36244" lon="1.59309">
        <ele>279.7</ele>
        <time>2016-09-29T13:21:21Z</time>
      </trkpt>
      <trkpt lat="44.36234" lon="1.5931">
        <ele>279.7</ele>
        <time>2016-09-29T13:21:29Z</time>
      </trkpt>
      <trkpt lat="44.36224" lon="1.5931">
        <ele>279.7</ele>
        <time>2016-09-29T13:21:37Z</time>
      </trkpt>
      <trkpt lat="44.36214" lon="1.59308">
        <ele>279.9</ele>
        <time>2016-09-29T13:21:44Z</time>
      </trkpt>
      <trkpt lat="44.36205" lon="1.5931">
        <ele>280.2</ele>
        <time>2016-09-29T13:21:52Z</time>
      </trkpt>
      <trkpt lat="44.36195" lon="1.59312">
        <ele>280.3</ele>
        <time>2016-09-29T13:22:00Z</time>
      </trkpt>
      <trkpt lat="44.36185" lon="1.59314">
        <ele>280.4</ele>
        <time>2016-09-29T13:22:08Z</time>
      </trkpt>
      <trkpt lat="44.36176" lon="1.59318">
        <ele>280.5</ele>
        <time>2016-09-29T13:22:16Z</time>
      </trkpt>
      <trkpt lat="44.36166" lon="1.5932">
        <ele>280.9</ele>
        <time>2016-09-29T13:22:24Z</time>
      </trkpt>
      <trkpt lat="44.36156" lon="1.59323">
        <ele>281.1</ele>
        <time>2016-09-29T13:22:32Z</time>
      </trkpt>
      <trkpt lat="44.36147" lon="1.59325">
        <ele>281.3</ele>
        <time>2016-09-29T13:22:40Z</time>
      </trkpt>
      <trkpt lat="44.36137" lon="1.59324">
        <ele>281.2</ele>
        <time>2016-09-29T13:22:47Z</time>
      </trkpt>
      <trkpt lat="44.36127" lon="1.59326">
        <ele>281.2</ele>
        <time>2016-09-29T13:22:55Z</time>
      </trkpt>
      <trkpt lat="44.36117" lon="1.59327">
        <ele>281.3</ele>
        <time>2016-09-29T13:23:03Z</time>
      </trkpt>
      <trkpt lat="44.36107" lon="1.59329">
        <ele>281.4</ele>
        <time>2016-09-29T13:23:11Z</time>
      </trkpt>
      <trkpt lat="44.36097" lon="1.59332">
        <ele>281.7</ele>
        <time>2016-09-29T13:23:19Z</time>
      </trkpt>
      <trkpt lat="44.36088" lon="1.59335">
        <ele>281.8</ele>
        <time>2016-09-29T13:23:26Z</time>
      </trkpt>
      <trkpt lat="44.36079" lon="1.59341">
        <ele>281.9</ele>
        <time>2016-09-29T13:23:34Z</time>
      </trkpt>
      <trkpt lat="44.3607" lon="1.59347">
        <ele>281.8</ele>
        <time>2016-09-29T13:23:42Z</time>
      </trkpt>
      <trkpt lat="44.36061" lon="1.59351">
        <ele>281.7</ele>
        <time>2016-09-29T13:23:50Z</time>
      </trkpt>
      <trkpt lat="44.36052" lon="1.59354">
        <ele>281.8</ele>
        <time>2016-09-29T13:23:58Z</time>
      </trkpt>
      <trkpt lat="44.36042" lon="1.59355">
        <ele>281.8</ele>
        <time>2016-09-29T13:24:06Z</time>
      </trkpt>
      <trkpt lat="44.36032" lon="1.59355">
        <ele>281.8</ele>
        <time>2016-09-29T13:24:14Z</time>
      </trkpt>
      <trkpt lat="44.36022" lon="1.59354">
        <ele>281.7</ele>
        <time>2016-09-29T13:24:22Z</time>
      </trkpt>
      <trkpt lat="44.36012" lon="1.59353">
        <ele>282</ele>
        <time>2016-09-29T13:24:30Z</time>
      </trkpt>
      <trkpt lat="44.36003" lon="1.59353">
        <ele>281.9</ele>
        <time>2016-09-29T13:24:39Z</time>
      </trkpt>
      <trkpt lat="44.35994" lon="1.59353">
        <ele>281.8</ele>
        <time>2016-09-29T13:24:47Z</time>
      </trkpt>
      <trkpt lat="44.35984" lon="1.59354">
        <ele>281.6</ele>
        <time>2016-09-29T13:24:55Z</time>
      </trkpt>
      <trkpt lat="44.35975" lon="1.59356">
        <ele>281.1</ele>
        <time>2016-09-29T13:25:03Z</time>
      </trkpt>
      <trkpt lat="44.35965" lon="1.59357">
        <ele>280.3</ele>
        <time>2016-09-29T13:25:11Z</time>
      </trkpt>
      <trkpt lat="44.35956" lon="1.59358">
        <ele>279.7</ele>
        <time>2016-09-29T13:25:19Z</time>
      </trkpt>
      <trkpt lat="44.35947" lon="1.59358">
        <ele>279.3</ele>
        <time>2016-09-29T13:25:27Z</time>
      </trkpt>
      <trkpt lat="44.35938" lon="1.59358">
        <ele>278.9</ele>
        <time>2016-09-29T13:25:35Z</time>
      </trkpt>
      <trkpt lat="44.35928" lon="1.59358">
        <ele>278.5</ele>
        <time>2016-09-29T13:25:43Z</time>
      </trkpt>
      <trkpt lat="44.35918" lon="1.59357">
        <ele>278.1</ele>
        <time>2016-09-29T13:25:51Z</time>
      </trkpt>
      <trkpt lat="44.35909" lon="1.59356">
        <ele>277.6</ele>
        <time>2016-09-29T13:25:59Z</time>
      </trkpt>
      <trkpt lat="44.359" lon="1.59356">
        <ele>277.3</ele>
        <time>2016-09-29T13:26:07Z</time>
      </trkpt>
      <trkpt lat="44.35891" lon="1.59359">
        <ele>277</ele>
        <time>2016-09-29T13:26:15Z</time>
      </trkpt>
      <trkpt lat="44.35882" lon="1.59363">
        <ele>276.8</ele>
        <time>2016-09-29T13:26:23Z</time>
      </trkpt>
      <trkpt lat="44.35872" lon="1.59368">
        <ele>276.7</ele>
        <time>2016-09-29T13:26:31Z</time>
      </trkpt>
      <trkpt lat="44.35863" lon="1.59371">
        <ele>276.8</ele>
        <time>2016-09-29T13:26:39Z</time>
      </trkpt>
      <trkpt lat="44.35854" lon="1.59372">
        <ele>277</ele>
        <time>2016-09-29T13:26:47Z</time>
      </trkpt>
      <trkpt lat="44.35844" lon="1.59372">
        <ele>277.5</ele>
        <time>2016-09-29T13:26:55Z</time>
      </trkpt>
      <trkpt lat="44.35834" lon="1.59372">
        <ele>277.9</ele>
        <time>2016-09-29T13:27:03Z</time>
      </trkpt>
      <trkpt lat="44.35825" lon="1.59372">
        <ele>278.6</ele>
        <time>2016-09-29T13:27:11Z</time>
      </trkpt>
      <trkpt lat="44.35816" lon="1.59372">
        <ele>279.1</ele>
        <time>2016-09-29T13:27:19Z</time>
      </trkpt>
      <trkpt lat="44.35807" lon="1.59372">
        <ele>279.4</ele>
        <time>2016-09-29T13:27:27Z</time>
      </trkpt>
      <trkpt lat="44.35797" lon="1.59371">
        <ele>279.8</ele>
        <time>2016-09-29T13:27:35Z</time>
      </trkpt>
      <trkpt lat="44.35788" lon="1.59371">
        <ele>280.1</ele>
        <time>2016-09-29T13:27:43Z</time>
      </trkpt>
      <trkpt lat="44.35778" lon="1.59371">
        <ele>280.7</ele>
        <time>2016-09-29T13:27:51Z</time>
      </trkpt>
      <trkpt lat="44.35769" lon="1.59371">
        <ele>281.3</ele>
        <time>2016-09-29T13:27:59Z</time>
      </trkpt>
      <trkpt lat="44.35759" lon="1.59369">
        <ele>281.4</ele>
        <time>2016-09-29T13:28:07Z</time>
      </trkpt>
      <trkpt lat="44.3575" lon="1.59367">
        <ele>281.5</ele>
        <time>2016-09-29T13:28:15Z</time>
      </trkpt>
      <trkpt lat="44.35741" lon="1.59365">
        <ele>281.4</ele>
        <time>2016-09-29T13:28:23Z</time>
      </trkpt>
      <trkpt lat="44.35731" lon="1.59363">
        <ele>281.2</ele>
        <time>2016-09-29T13:28:31Z</time>
      </trkpt>
      <trkpt lat="44.35722" lon="1.59362">
        <ele>280.8</ele>
        <time>2016-09-29T13:28:39Z</time>
      </trkpt>
      <trkpt lat="44.35713" lon="1.59361">
        <ele>280.5</ele>
        <time>2016-09-29T13:28:47Z</time>
      </trkpt>
      <trkpt lat="44.35703" lon="1.5936">
        <ele>280.1</ele>
        <time>2016-09-29T13:28:56Z</time>
      </trkpt>
      <trkpt lat="44.35693" lon="1.59356">
        <ele>279.6</ele>
        <time>2016-09-29T13:29:05Z</time>
      </trkpt>
      <trkpt lat="44.35683" lon="1.59353">
        <ele>278.6</ele>
        <time>2016-09-29T13:29:13Z</time>
      </trkpt>
      <trkpt lat="44.35674" lon="1.5935">
        <ele>277.9</ele>
        <time>2016-09-29T13:29:20Z</time>
      </trkpt>
      <trkpt lat="44.35665" lon="1.59348">
        <ele>277.5</ele>
        <time>2016-09-29T13:29:27Z</time>
      </trkpt>
      <trkpt lat="44.35655" lon="1.59347">
        <ele>277.1</ele>
        <time>2016-09-29T13:29:35Z</time>
      </trkpt>
      <trkpt lat="44.35645" lon="1.59346">
        <ele>276.9</ele>
        <time>2016-09-29T13:29:44Z</time>
      </trkpt>
      <trkpt lat="44.35636" lon="1.59346">
        <ele>276.8</ele>
        <time>2016-09-29T13:29:52Z</time>
      </trkpt>
      <trkpt lat="44.35626" lon="1.59347">
        <ele>276.7</ele>
        <time>2016-09-29T13:30:00Z</time>
      </trkpt>
      <trkpt lat="44.35617" lon="1.59349">
        <ele>276.7</ele>
        <time>2016-09-29T13:30:08Z</time>
      </trkpt>
      <trkpt lat="44.35607" lon="1.59352">
        <ele>276.7</ele>
        <time>2016-09-29T13:30:16Z</time>
      </trkpt>
      <trkpt lat="44.35598" lon="1.59355">
        <ele>276.7</ele>
        <time>2016-09-29T13:30:24Z</time>
      </trkpt>
      <trkpt lat="44.35588" lon="1.59359">
        <ele>276.8</ele>
        <time>2016-09-29T13:30:32Z</time>
      </trkpt>
      <trkpt lat="44.35578" lon="1.59361">
        <ele>276.9</ele>
        <time>2016-09-29T13:30:41Z</time>
      </trkpt>
      <trkpt lat="44.35569" lon="1.59364">
        <ele>277.2</ele>
        <time>2016-09-29T13:30:50Z</time>
      </trkpt>
      <trkpt lat="44.35559" lon="1.59367">
        <ele>277.4</ele>
        <time>2016-09-29T13:30:59Z</time>
      </trkpt>
      <trkpt lat="44.3555" lon="1.5937">
        <ele>277.8</ele>
        <time>2016-09-29T13:31:08Z</time>
      </trkpt>
      <trkpt lat="44.35541" lon="1.59373">
        <ele>278.3</ele>
        <time>2016-09-29T13:31:16Z</time>
      </trkpt>
      <trkpt lat="44.35531" lon="1.59375">
        <ele>278.7</ele>
        <time>2016-09-29T13:31:24Z</time>
      </trkpt>
      <trkpt lat="44.35522" lon="1.59377">
        <ele>278.9</ele>
        <time>2016-09-29T13:31:33Z</time>
      </trkpt>
      <trkpt lat="44.35512" lon="1.59378">
        <ele>279</ele>
        <time>2016-09-29T13:31:42Z</time>
      </trkpt>
      <trkpt lat="44.35503" lon="1.59379">
        <ele>279</ele>
        <time>2016-09-29T13:31:50Z</time>
      </trkpt>
      <trkpt lat="44.35494" lon="1.59378">
        <ele>279</ele>
        <time>2016-09-29T13:31:58Z</time>
      </trkpt>
      <trkpt lat="44.35485" lon="1.59378">
        <ele>278.8</ele>
        <time>2016-09-29T13:32:06Z</time>
      </trkpt>
      <trkpt lat="44.35475" lon="1.59378">
        <ele>278.6</ele>
        <time>2016-09-29T13:32:15Z</time>
      </trkpt>
      <trkpt lat="44.35465" lon="1.5938">
        <ele>277.8</ele>
        <time>2016-09-29T13:32:24Z</time>
      </trkpt>
      <trkpt lat="44.35456" lon="1.59385">
        <ele>276.9</ele>
        <time>2016-09-29T13:32:32Z</time>
      </trkpt>
      <trkpt lat="44.35447" lon="1.5939">
        <ele>276.4</ele>
        <time>2016-09-29T13:32:40Z</time>
      </trkpt>
      <trkpt lat="44.35438" lon="1.59392">
        <ele>275.7</ele>
        <time>2016-09-29T13:33:17Z</time>
      </trkpt>
      <trkpt lat="44.35429" lon="1.59395">
        <ele>275.3</ele>
        <time>2016-09-29T13:35:23Z</time>
      </trkpt>
      <trkpt lat="44.35422" lon="1.59387">
        <ele>275.2</ele>
        <time>2016-09-29T13:35:31Z</time>
      </trkpt>
      <trkpt lat="44.35416" lon="1.59376">
        <ele>275.2</ele>
        <time>2016-09-29T13:35:40Z</time>
      </trkpt>
      <trkpt lat="44.35411" lon="1.59365">
        <ele>275.1</ele>
        <time>2016-09-29T13:35:48Z</time>
      </trkpt>
      <trkpt lat="44.35405" lon="1.59353">
        <ele>275.1</ele>
        <time>2016-09-29T13:35:56Z</time>
      </trkpt>
      <trkpt lat="44.35401" lon="1.59341">
        <ele>275.3</ele>
        <time>2016-09-29T13:36:04Z</time>
      </trkpt>
      <trkpt lat="44.35395" lon="1.5933">
        <ele>275.6</ele>
        <time>2016-09-29T13:36:14Z</time>
      </trkpt>
      <trkpt lat="44.35391" lon="1.59318">
        <ele>276.1</ele>
        <time>2016-09-29T13:36:23Z</time>
      </trkpt>
      <trkpt lat="44.35388" lon="1.59306">
        <ele>277</ele>
        <time>2016-09-29T13:36:32Z</time>
      </trkpt>
      <trkpt lat="44.35382" lon="1.59296">
        <ele>277.7</ele>
        <time>2016-09-29T13:36:40Z</time>
      </trkpt>
      <trkpt lat="44.35374" lon="1.59288">
        <ele>278.1</ele>
        <time>2016-09-29T13:36:49Z</time>
      </trkpt>
      <trkpt lat="44.35365" lon="1.59283">
        <ele>278.5</ele>
        <time>2016-09-29T13:36:58Z</time>
      </trkpt>
      <trkpt lat="44.35356" lon="1.59285">
        <ele>278.8</ele>
        <time>2016-09-29T13:37:07Z</time>
      </trkpt>
      <trkpt lat="44.35348" lon="1.59292">
        <ele>279</ele>
        <time>2016-09-29T13:37:16Z</time>
      </trkpt>
      <trkpt lat="44.35342" lon="1.59302">
        <ele>279</ele>
        <time>2016-09-29T13:37:24Z</time>
      </trkpt>
      <trkpt lat="44.35335" lon="1.59311">
        <ele>278.9</ele>
        <time>2016-09-29T13:37:32Z</time>
      </trkpt>
      <trkpt lat="44.35329" lon="1.5932">
        <ele>278.8</ele>
        <time>2016-09-29T13:37:41Z</time>
      </trkpt>
      <trkpt lat="44.35323" lon="1.5933">
        <ele>278.7</ele>
        <time>2016-09-29T13:37:49Z</time>
      </trkpt>
      <trkpt lat="44.35316" lon="1.59339">
        <ele>278.6</ele>
        <time>2016-09-29T13:38:01Z</time>
      </trkpt>
      <trkpt lat="44.3531" lon="1.59349">
        <ele>278.5</ele>
        <time>2016-09-29T13:38:10Z</time>
      </trkpt>
      <trkpt lat="44.35303" lon="1.59358">
        <ele>278.2</ele>
        <time>2016-09-29T13:38:18Z</time>
      </trkpt>
      <trkpt lat="44.35297" lon="1.59369">
        <ele>277.9</ele>
        <time>2016-09-29T13:38:26Z</time>
      </trkpt>
      <trkpt lat="44.35292" lon="1.59379">
        <ele>277.9</ele>
        <time>2016-09-29T13:38:34Z</time>
      </trkpt>
      <trkpt lat="44.35285" lon="1.59389">
        <ele>278.2</ele>
        <time>2016-09-29T13:38:42Z</time>
      </trkpt>
      <trkpt lat="44.35279" lon="1.59398">
        <ele>277.9</ele>
        <time>2016-09-29T13:38:50Z</time>
      </trkpt>
      <trkpt lat="44.35273" lon="1.59409">
        <ele>278</ele>
        <time>2016-09-29T13:38:58Z</time>
      </trkpt>
      <trkpt lat="44.35267" lon="1.5942">
        <ele>278</ele>
        <time>2016-09-29T13:39:05Z</time>
      </trkpt>
      <trkpt lat="44.35262" lon="1.59432">
        <ele>277.8</ele>
        <time>2016-09-29T13:39:13Z</time>
      </trkpt>
      <trkpt lat="44.35257" lon="1.59444">
        <ele>277.6</ele>
        <time>2016-09-29T13:39:22Z</time>
      </trkpt>
      <trkpt lat="44.35252" lon="1.59455">
        <ele>277.2</ele>
        <time>2016-09-29T13:39:30Z</time>
      </trkpt>
      <trkpt lat="44.35247" lon="1.59467">
        <ele>276.6</ele>
        <time>2016-09-29T13:39:38Z</time>
      </trkpt>
      <trkpt lat="44.35243" lon="1.59479">
        <ele>276.4</ele>
        <time>2016-09-29T13:39:46Z</time>
      </trkpt>
      <trkpt lat="44.35238" lon="1.5949">
        <ele>276.3</ele>
        <time>2016-09-29T13:39:54Z</time>
      </trkpt>
      <trkpt lat="44.35233" lon="1.59503">
        <ele>276.3</ele>
        <time>2016-09-29T13:40:04Z</time>
      </trkpt>
      <trkpt lat="44.35227" lon="1.59513">
        <ele>276.2</ele>
        <time>2016-09-29T13:40:12Z</time>
      </trkpt>
      <trkpt lat="44.35222" lon="1.59525">
        <ele>276.2</ele>
        <time>2016-09-29T13:40:20Z</time>
      </trkpt>
      <trkpt lat="44.35215" lon="1.59537">
        <ele>275</ele>
        <time>2016-09-29T13:40:29Z</time>
      </trkpt>
      <trkpt lat="44.35208" lon="1.59547">
        <ele>276</ele>
        <time>2016-09-29T13:40:37Z</time>
      </trkpt>
      <trkpt lat="44.35202" lon="1.59556">
        <ele>276.5</ele>
        <time>2016-09-29T13:40:44Z</time>
      </trkpt>
      <trkpt lat="44.35195" lon="1.59566">
        <ele>276.6</ele>
        <time>2016-09-29T13:40:52Z</time>
      </trkpt>
      <trkpt lat="44.35189" lon="1.59576">
        <ele>276.9</ele>
        <time>2016-09-29T13:41:01Z</time>
      </trkpt>
      <trkpt lat="44.35184" lon="1.59588">
        <ele>277.1</ele>
        <time>2016-09-29T13:41:09Z</time>
      </trkpt>
      <trkpt lat="44.35178" lon="1.59597">
        <ele>277.3</ele>
        <time>2016-09-29T13:41:20Z</time>
      </trkpt>
      <trkpt lat="44.35171" lon="1.59609">
        <ele>277.6</ele>
        <time>2016-09-29T13:41:28Z</time>
      </trkpt>
      <trkpt lat="44.35167" lon="1.59621">
        <ele>278.3</ele>
        <time>2016-09-29T13:41:36Z</time>
      </trkpt>
      <trkpt lat="44.35161" lon="1.59632">
        <ele>279</ele>
        <time>2016-09-29T13:41:46Z</time>
      </trkpt>
      <trkpt lat="44.35156" lon="1.59643">
        <ele>279.7</ele>
        <time>2016-09-29T13:41:56Z</time>
      </trkpt>
      <trkpt lat="44.35151" lon="1.59653">
        <ele>280.3</ele>
        <time>2016-09-29T13:42:06Z</time>
      </trkpt>
      <trkpt lat="44.35144" lon="1.59663">
        <ele>280.7</ele>
        <time>2016-09-29T13:42:16Z</time>
      </trkpt>
      <trkpt lat="44.35139" lon="1.59673">
        <ele>281.1</ele>
        <time>2016-09-29T13:42:24Z</time>
      </trkpt>
      <trkpt lat="44.35133" lon="1.59685">
        <ele>281.4</ele>
        <time>2016-09-29T13:42:32Z</time>
      </trkpt>
      <trkpt lat="44.35127" lon="1.59694">
        <ele>281.5</ele>
        <time>2016-09-29T13:42:40Z</time>
      </trkpt>
      <trkpt lat="44.3512" lon="1.59703">
        <ele>281.6</ele>
        <time>2016-09-29T13:42:48Z</time>
      </trkpt>
      <trkpt lat="44.35113" lon="1.59712">
        <ele>281.1</ele>
        <time>2016-09-29T13:42:56Z</time>
      </trkpt>
      <trkpt lat="44.35106" lon="1.59722">
        <ele>280.6</ele>
        <time>2016-09-29T13:43:05Z</time>
      </trkpt>
      <trkpt lat="44.351" lon="1.59731">
        <ele>280.2</ele>
        <time>2016-09-29T13:43:14Z</time>
      </trkpt>
      <trkpt lat="44.35093" lon="1.59742">
        <ele>279.7</ele>
        <time>2016-09-29T13:43:22Z</time>
      </trkpt>
      <trkpt lat="44.35088" lon="1.59751">
        <ele>279.4</ele>
        <time>2016-09-29T13:43:29Z</time>
      </trkpt>
      <trkpt lat="44.35081" lon="1.59763">
        <ele>279.2</ele>
        <time>2016-09-29T13:43:37Z</time>
      </trkpt>
      <trkpt lat="44.35075" lon="1.59773">
        <ele>278.5</ele>
        <time>2016-09-29T13:43:45Z</time>
      </trkpt>
      <trkpt lat="44.35069" lon="1.59784">
        <ele>278.1</ele>
        <time>2016-09-29T13:43:54Z</time>
      </trkpt>
      <trkpt lat="44.35064" lon="1.59795">
        <ele>277.9</ele>
        <time>2016-09-29T13:44:03Z</time>
      </trkpt>
      <trkpt lat="44.35059" lon="1.59805">
        <ele>277.7</ele>
        <time>2016-09-29T13:44:12Z</time>
      </trkpt>
      <trkpt lat="44.35053" lon="1.59816">
        <ele>277.6</ele>
        <time>2016-09-29T13:44:21Z</time>
      </trkpt>
      <trkpt lat="44.35047" lon="1.59827">
        <ele>277.5</ele>
        <time>2016-09-29T13:44:31Z</time>
      </trkpt>
      <trkpt lat="44.35042" lon="1.59838">
        <ele>277.5</ele>
        <time>2016-09-29T13:44:40Z</time>
      </trkpt>
      <trkpt lat="44.35036" lon="1.59848">
        <ele>277.4</ele>
        <time>2016-09-29T13:44:49Z</time>
      </trkpt>
      <trkpt lat="44.3503" lon="1.59859">
        <ele>277.3</ele>
        <time>2016-09-29T13:44:58Z</time>
      </trkpt>
      <trkpt lat="44.35023" lon="1.5987">
        <ele>277.3</ele>
        <time>2016-09-29T13:45:07Z</time>
      </trkpt>
      <trkpt lat="44.35018" lon="1.5988">
        <ele>277</ele>
        <time>2016-09-29T13:45:15Z</time>
      </trkpt>
      <trkpt lat="44.35012" lon="1.59892">
        <ele>276.9</ele>
        <time>2016-09-29T13:45:23Z</time>
      </trkpt>
      <trkpt lat="44.35007" lon="1.59903">
        <ele>276.4</ele>
        <time>2016-09-29T13:45:31Z</time>
      </trkpt>
      <trkpt lat="44.35001" lon="1.59913">
        <ele>275.9</ele>
        <time>2016-09-29T13:45:39Z</time>
      </trkpt>
      <trkpt lat="44.34995" lon="1.59923">
        <ele>275.7</ele>
        <time>2016-09-29T13:45:48Z</time>
      </trkpt>
      <trkpt lat="44.34989" lon="1.59933">
        <ele>275.2</ele>
        <time>2016-09-29T13:45:57Z</time>
      </trkpt>
      <trkpt lat="44.34984" lon="1.59945">
        <ele>275</ele>
        <time>2016-09-29T13:46:06Z</time>
      </trkpt>
      <trkpt lat="44.34978" lon="1.59957">
        <ele>274.9</ele>
        <time>2016-09-29T13:46:14Z</time>
      </trkpt>
      <trkpt lat="44.34972" lon="1.59967">
        <ele>274.8</ele>
        <time>2016-09-29T13:46:22Z</time>
      </trkpt>
      <trkpt lat="44.34967" lon="1.59978">
        <ele>274.8</ele>
        <time>2016-09-29T13:46:32Z</time>
      </trkpt>
      <trkpt lat="44.3496" lon="1.59988">
        <ele>274.9</ele>
        <time>2016-09-29T13:46:42Z</time>
      </trkpt>
      <trkpt lat="44.34955" lon="1.59999">
        <ele>275</ele>
        <time>2016-09-29T13:46:51Z</time>
      </trkpt>
      <trkpt lat="44.34951" lon="1.60011">
        <ele>275</ele>
        <time>2016-09-29T13:47:01Z</time>
      </trkpt>
      <trkpt lat="44.34947" lon="1.60024">
        <ele>275</ele>
        <time>2016-09-29T13:47:08Z</time>
      </trkpt>
      <trkpt lat="44.34943" lon="1.60035">
        <ele>275</ele>
        <time>2016-09-29T13:47:14Z</time>
      </trkpt>
      <trkpt lat="44.34939" lon="1.60048">
        <ele>274.6</ele>
        <time>2016-09-29T13:47:22Z</time>
      </trkpt>
      <trkpt lat="44.34934" lon="1.6006">
        <ele>274.4</ele>
        <time>2016-09-29T13:47:30Z</time>
      </trkpt>
      <trkpt lat="44.3493" lon="1.60071">
        <ele>274.2</ele>
        <time>2016-09-29T13:47:38Z</time>
      </trkpt>
      <trkpt lat="44.34925" lon="1.60082">
        <ele>274</ele>
        <time>2016-09-29T13:47:47Z</time>
      </trkpt>
      <trkpt lat="44.34919" lon="1.60094">
        <ele>273.6</ele>
        <time>2016-09-29T13:47:56Z</time>
      </trkpt>
      <trkpt lat="44.34912" lon="1.60104">
        <ele>272.9</ele>
        <time>2016-09-29T13:48:04Z</time>
      </trkpt>
      <trkpt lat="44.34906" lon="1.60114">
        <ele>272.4</ele>
        <time>2016-09-29T13:48:12Z</time>
      </trkpt>
      <trkpt lat="44.349" lon="1.60123">
        <ele>271.7</ele>
        <time>2016-09-29T13:48:20Z</time>
      </trkpt>
      <trkpt lat="44.34894" lon="1.60133">
        <ele>271.1</ele>
        <time>2016-09-29T13:48:29Z</time>
      </trkpt>
      <trkpt lat="44.3489" lon="1.60144">
        <ele>270.8</ele>
        <time>2016-09-29T13:48:40Z</time>
      </trkpt>
      <trkpt lat="44.34888" lon="1.60157">
        <ele>270.8</ele>
        <time>2016-09-29T13:48:50Z</time>
      </trkpt>
      <trkpt lat="44.34885" lon="1.6017">
        <ele>270.9</ele>
        <time>2016-09-29T13:48:58Z</time>
      </trkpt>
      <trkpt lat="44.34882" lon="1.60183">
        <ele>271</ele>
        <time>2016-09-29T13:49:07Z</time>
      </trkpt>
      <trkpt lat="44.34878" lon="1.60196">
        <ele>271.6</ele>
        <time>2016-09-29T13:49:16Z</time>
      </trkpt>
      <trkpt lat="44.34872" lon="1.60213">
        <ele>272</ele>
        <time>2016-09-29T13:49:24Z</time>
      </trkpt>
      <trkpt lat="44.34869" lon="1.60224">
        <ele>272.5</ele>
        <time>2016-09-29T13:49:35Z</time>
      </trkpt>
      <trkpt lat="44.34863" lon="1.60235">
        <ele>272.8</ele>
        <time>2016-09-29T13:49:43Z</time>
      </trkpt>
      <trkpt lat="44.34858" lon="1.60247">
        <ele>273.4</ele>
        <time>2016-09-29T13:49:51Z</time>
      </trkpt>
      <trkpt lat="44.34854" lon="1.60258">
        <ele>273.7</ele>
        <time>2016-09-29T13:49:59Z</time>
      </trkpt>
      <trkpt lat="44.34848" lon="1.60268">
        <ele>274.5</ele>
        <time>2016-09-29T13:50:09Z</time>
      </trkpt>
      <trkpt lat="44.34844" lon="1.60279">
        <ele>275.2</ele>
        <time>2016-09-29T13:50:18Z</time>
      </trkpt>
      <trkpt lat="44.3484" lon="1.60292">
        <ele>276.2</ele>
        <time>2016-09-29T13:50:29Z</time>
      </trkpt>
      <trkpt lat="44.34837" lon="1.60304">
        <ele>276.9</ele>
        <time>2016-09-29T13:50:38Z</time>
      </trkpt>
      <trkpt lat="44.34834" lon="1.60317">
        <ele>277.7</ele>
        <time>2016-09-29T13:50:47Z</time>
      </trkpt>
      <trkpt lat="44.34831" lon="1.6033">
        <ele>278.2</ele>
        <time>2016-09-29T13:50:56Z</time>
      </trkpt>
      <trkpt lat="44.34828" lon="1.60342">
        <ele>278.6</ele>
        <time>2016-09-29T13:51:04Z</time>
      </trkpt>
      <trkpt lat="44.34824" lon="1.60355">
        <ele>279.3</ele>
        <time>2016-09-29T13:51:13Z</time>
      </trkpt>
      <trkpt lat="44.34821" lon="1.60367">
        <ele>279.6</ele>
        <time>2016-09-29T13:51:21Z</time>
      </trkpt>
      <trkpt lat="44.34818" lon="1.60379">
        <ele>279.8</ele>
        <time>2016-09-29T13:51:29Z</time>
      </trkpt>
      <trkpt lat="44.34815" lon="1.60391">
        <ele>280</ele>
        <time>2016-09-29T13:51:38Z</time>
      </trkpt>
      <trkpt lat="44.34813" lon="1.60405">
        <ele>280.5</ele>
        <time>2016-09-29T13:51:47Z</time>
      </trkpt>
      <trkpt lat="44.3481" lon="1.60418">
        <ele>280.9</ele>
        <time>2016-09-29T13:51:55Z</time>
      </trkpt>
      <trkpt lat="44.34809" lon="1.6043">
        <ele>281.5</ele>
        <time>2016-09-29T13:52:03Z</time>
      </trkpt>
      <trkpt lat="44.34807" lon="1.60443">
        <ele>282</ele>
        <time>2016-09-29T13:52:12Z</time>
      </trkpt>
      <trkpt lat="44.34804" lon="1.60455">
        <ele>282.4</ele>
        <time>2016-09-29T13:52:20Z</time>
      </trkpt>
      <trkpt lat="44.34801" lon="1.60467">
        <ele>282.8</ele>
        <time>2016-09-29T13:52:28Z</time>
      </trkpt>
      <trkpt lat="44.34799" lon="1.6048">
        <ele>283.2</ele>
        <time>2016-09-29T13:52:36Z</time>
      </trkpt>
      <trkpt lat="44.34797" lon="1.60493">
        <ele>283.6</ele>
        <time>2016-09-29T13:52:45Z</time>
      </trkpt>
      <trkpt lat="44.34794" lon="1.60505">
        <ele>283.7</ele>
        <time>2016-09-29T13:52:55Z</time>
      </trkpt>
      <trkpt lat="44.34792" lon="1.60518">
        <ele>283.8</ele>
        <time>2016-09-29T13:53:03Z</time>
      </trkpt>
      <trkpt lat="44.3479" lon="1.60532">
        <ele>284.1</ele>
        <time>2016-09-29T13:53:12Z</time>
      </trkpt>
      <trkpt lat="44.34788" lon="1.60545">
        <ele>284.6</ele>
        <time>2016-09-29T13:53:21Z</time>
      </trkpt>
      <trkpt lat="44.34788" lon="1.60557">
        <ele>285.3</ele>
        <time>2016-09-29T13:53:30Z</time>
      </trkpt>
      <trkpt lat="44.34787" lon="1.60572">
        <ele>285.8</ele>
        <time>2016-09-29T13:53:39Z</time>
      </trkpt>
      <trkpt lat="44.34786" lon="1.60585">
        <ele>285.9</ele>
        <time>2016-09-29T13:53:47Z</time>
      </trkpt>
      <trkpt lat="44.34785" lon="1.60599">
        <ele>286.2</ele>
        <time>2016-09-29T13:53:56Z</time>
      </trkpt>
      <trkpt lat="44.34786" lon="1.60613">
        <ele>286.1</ele>
        <time>2016-09-29T13:54:05Z</time>
      </trkpt>
      <trkpt lat="44.34785" lon="1.60625">
        <ele>285.8</ele>
        <time>2016-09-29T13:54:14Z</time>
      </trkpt>
      <trkpt lat="44.34786" lon="1.60638">
        <ele>286.2</ele>
        <time>2016-09-29T13:54:24Z</time>
      </trkpt>
      <trkpt lat="44.34786" lon="1.60652">
        <ele>286.6</ele>
        <time>2016-09-29T13:54:32Z</time>
      </trkpt>
      <trkpt lat="44.34786" lon="1.60665">
        <ele>286.8</ele>
        <time>2016-09-29T13:54:40Z</time>
      </trkpt>
      <trkpt lat="44.34789" lon="1.60678">
        <ele>286.9</ele>
        <time>2016-09-29T13:54:49Z</time>
      </trkpt>
      <trkpt lat="44.34792" lon="1.6069">
        <ele>286.7</ele>
        <time>2016-09-29T13:54:58Z</time>
      </trkpt>
      <trkpt lat="44.34794" lon="1.60703">
        <ele>286.7</ele>
        <time>2016-09-29T13:55:08Z</time>
      </trkpt>
      <trkpt lat="44.34794" lon="1.60716">
        <ele>286.7</ele>
        <time>2016-09-29T13:55:16Z</time>
      </trkpt>
      <trkpt lat="44.34795" lon="1.60729">
        <ele>286.7</ele>
        <time>2016-09-29T13:55:24Z</time>
      </trkpt>
      <trkpt lat="44.34796" lon="1.60742">
        <ele>286.7</ele>
        <time>2016-09-29T13:55:33Z</time>
      </trkpt>
      <trkpt lat="44.34795" lon="1.60755">
        <ele>286.7</ele>
        <time>2016-09-29T13:55:42Z</time>
      </trkpt>
      <trkpt lat="44.34795" lon="1.60768">
        <ele>286.5</ele>
        <time>2016-09-29T13:55:52Z</time>
      </trkpt>
      <trkpt lat="44.34796" lon="1.60781">
        <ele>286.2</ele>
        <time>2016-09-29T13:56:01Z</time>
      </trkpt>
      <trkpt lat="44.34797" lon="1.60795">
        <ele>286.1</ele>
        <time>2016-09-29T13:56:11Z</time>
      </trkpt>
      <trkpt lat="44.34798" lon="1.60809">
        <ele>286.2</ele>
        <time>2016-09-29T13:56:20Z</time>
      </trkpt>
      <trkpt lat="44.34799" lon="1.60822">
        <ele>286</ele>
        <time>2016-09-29T13:56:28Z</time>
      </trkpt>
      <trkpt lat="44.34798" lon="1.60836">
        <ele>285.9</ele>
        <time>2016-09-29T13:56:36Z</time>
      </trkpt>
      <trkpt lat="44.34799" lon="1.60848">
        <ele>285.7</ele>
        <time>2016-09-29T13:56:44Z</time>
      </trkpt>
      <trkpt lat="44.34799" lon="1.60861">
        <ele>285.5</ele>
        <time>2016-09-29T13:56:52Z</time>
      </trkpt>
      <trkpt lat="44.348" lon="1.60874">
        <ele>285.4</ele>
        <time>2016-09-29T13:57:01Z</time>
      </trkpt>
      <trkpt lat="44.348" lon="1.60888">
        <ele>285.3</ele>
        <time>2016-09-29T13:57:10Z</time>
      </trkpt>
      <trkpt lat="44.348" lon="1.60902">
        <ele>285.3</ele>
        <time>2016-09-29T13:57:18Z</time>
      </trkpt>
      <trkpt lat="44.348" lon="1.60916">
        <ele>285.3</ele>
        <time>2016-09-29T13:57:26Z</time>
      </trkpt>
      <trkpt lat="44.34801" lon="1.60929">
        <ele>285.3</ele>
        <time>2016-09-29T13:57:34Z</time>
      </trkpt>
      <trkpt lat="44.34801" lon="1.60943">
        <ele>285.4</ele>
        <time>2016-09-29T13:57:43Z</time>
      </trkpt>
      <trkpt lat="44.34802" lon="1.60955">
        <ele>285.5</ele>
        <time>2016-09-29T13:57:51Z</time>
      </trkpt>
      <trkpt lat="44.34803" lon="1.60968">
        <ele>285.6</ele>
        <time>2016-09-29T13:57:59Z</time>
      </trkpt>
      <trkpt lat="44.34804" lon="1.60981">
        <ele>285.6</ele>
        <time>2016-09-29T13:58:08Z</time>
      </trkpt>
      <trkpt lat="44.34806" lon="1.60995">
        <ele>285.6</ele>
        <time>2016-09-29T13:58:17Z</time>
      </trkpt>
      <trkpt lat="44.34807" lon="1.61008">
        <ele>285.1</ele>
        <time>2016-09-29T13:58:26Z</time>
      </trkpt>
      <trkpt lat="44.34809" lon="1.61021">
        <ele>284.9</ele>
        <time>2016-09-29T13:58:35Z</time>
      </trkpt>
      <trkpt lat="44.34812" lon="1.61034">
        <ele>284.7</ele>
        <time>2016-09-29T13:58:44Z</time>
      </trkpt>
      <trkpt lat="44.34814" lon="1.61048">
        <ele>284.4</ele>
        <time>2016-09-29T13:58:53Z</time>
      </trkpt>
      <trkpt lat="44.34816" lon="1.6106">
        <ele>284.3</ele>
        <time>2016-09-29T13:59:01Z</time>
      </trkpt>
      <trkpt lat="44.3482" lon="1.61073">
        <ele>283.9</ele>
        <time>2016-09-29T13:59:10Z</time>
      </trkpt>
      <trkpt lat="44.34823" lon="1.61086">
        <ele>283.5</ele>
        <time>2016-09-29T13:59:19Z</time>
      </trkpt>
      <trkpt lat="44.34825" lon="1.61098">
        <ele>283.3</ele>
        <time>2016-09-29T13:59:28Z</time>
      </trkpt>
      <trkpt lat="44.34827" lon="1.61111">
        <ele>282.7</ele>
        <time>2016-09-29T13:59:38Z</time>
      </trkpt>
      <trkpt lat="44.34828" lon="1.61124">
        <ele>282</ele>
        <time>2016-09-29T13:59:47Z</time>
      </trkpt>
      <trkpt lat="44.34829" lon="1.61136">
        <ele>282.2</ele>
        <time>2016-09-29T13:59:56Z</time>
      </trkpt>
      <trkpt lat="44.3483" lon="1.61151">
        <ele>281.8</ele>
        <time>2016-09-29T14:00:04Z</time>
      </trkpt>
      <trkpt lat="44.3483" lon="1.61164">
        <ele>281.5</ele>
        <time>2016-09-29T14:00:13Z</time>
      </trkpt>
      <trkpt lat="44.3483" lon="1.61178">
        <ele>281.1</ele>
        <time>2016-09-29T14:00:23Z</time>
      </trkpt>
      <trkpt lat="44.3483" lon="1.61191">
        <ele>280.1</ele>
        <time>2016-09-29T14:00:33Z</time>
      </trkpt>
      <trkpt lat="44.3483" lon="1.61204">
        <ele>279.6</ele>
        <time>2016-09-29T14:00:41Z</time>
      </trkpt>
      <trkpt lat="44.34829" lon="1.61217">
        <ele>278.8</ele>
        <time>2016-09-29T14:00:49Z</time>
      </trkpt>
      <trkpt lat="44.34829" lon="1.61231">
        <ele>278.2</ele>
        <time>2016-09-29T14:00:57Z</time>
      </trkpt>
      <trkpt lat="44.34828" lon="1.61245">
        <ele>277.9</ele>
        <time>2016-09-29T14:01:05Z</time>
      </trkpt>
      <trkpt lat="44.34827" lon="1.61258">
        <ele>277.9</ele>
        <time>2016-09-29T14:01:13Z</time>
      </trkpt>
      <trkpt lat="44.34826" lon="1.61271">
        <ele>277.4</ele>
        <time>2016-09-29T14:01:22Z</time>
      </trkpt>
      <trkpt lat="44.34824" lon="1.61285">
        <ele>277.4</ele>
        <time>2016-09-29T14:01:31Z</time>
      </trkpt>
      <trkpt lat="44.34823" lon="1.61298">
        <ele>277</ele>
        <time>2016-09-29T14:01:42Z</time>
      </trkpt>
      <trkpt lat="44.3482" lon="1.6131">
        <ele>276.2</ele>
        <time>2016-09-29T14:01:52Z</time>
      </trkpt>
      <trkpt lat="44.34819" lon="1.61324">
        <ele>275.4</ele>
        <time>2016-09-29T14:02:03Z</time>
      </trkpt>
      <trkpt lat="44.34818" lon="1.61337">
        <ele>274.3</ele>
        <time>2016-09-29T14:02:12Z</time>
      </trkpt>
      <trkpt lat="44.34818" lon="1.6135">
        <ele>273</ele>
        <time>2016-09-29T14:02:22Z</time>
      </trkpt>
      <trkpt lat="44.34816" lon="1.61364">
        <ele>272.2</ele>
        <time>2016-09-29T14:02:32Z</time>
      </trkpt>
      <trkpt lat="44.34816" lon="1.61377">
        <ele>270.9</ele>
        <time>2016-09-29T14:02:43Z</time>
      </trkpt>
      <trkpt lat="44.34816" lon="1.61391">
        <ele>269.6</ele>
        <time>2016-09-29T14:02:54Z</time>
      </trkpt>
      <trkpt lat="44.34814" lon="1.61403">
        <ele>268.9</ele>
        <time>2016-09-29T14:03:02Z</time>
      </trkpt>
      <trkpt lat="44.3481" lon="1.61416">
        <ele>268.3</ele>
        <time>2016-09-29T14:03:11Z</time>
      </trkpt>
      <trkpt lat="44.34806" lon="1.61428">
        <ele>268</ele>
        <time>2016-09-29T14:03:20Z</time>
      </trkpt>
      <trkpt lat="44.34803" lon="1.6144">
        <ele>267.7</ele>
        <time>2016-09-29T14:03:29Z</time>
      </trkpt>
      <trkpt lat="44.34799" lon="1.61452">
        <ele>267.2</ele>
        <time>2016-09-29T14:03:38Z</time>
      </trkpt>
      <trkpt lat="44.34794" lon="1.61464">
        <ele>267</ele>
        <time>2016-09-29T14:03:47Z</time>
      </trkpt>
      <trkpt lat="44.34789" lon="1.61474">
        <ele>267.2</ele>
        <time>2016-09-29T14:03:56Z</time>
      </trkpt>
      <trkpt lat="44.34783" lon="1.61485">
        <ele>267.7</ele>
        <time>2016-09-29T14:04:04Z</time>
      </trkpt>
      <trkpt lat="44.34776" lon="1.61494">
        <ele>267.8</ele>
        <time>2016-09-29T14:04:12Z</time>
      </trkpt>
      <trkpt lat="44.3477" lon="1.61504">
        <ele>268</ele>
        <time>2016-09-29T14:04:20Z</time>
      </trkpt>
      <trkpt lat="44.34764" lon="1.61514">
        <ele>267.8</ele>
        <time>2016-09-29T14:04:27Z</time>
      </trkpt>
      <trkpt lat="44.34758" lon="1.61524">
        <ele>267.3</ele>
        <time>2016-09-29T14:04:35Z</time>
      </trkpt>
      <trkpt lat="44.34751" lon="1.61534">
        <ele>266.9</ele>
        <time>2016-09-29T14:04:44Z</time>
      </trkpt>
      <trkpt lat="44.34745" lon="1.61543">
        <ele>266.7</ele>
        <time>2016-09-29T14:04:53Z</time>
      </trkpt>
      <trkpt lat="44.34739" lon="1.61552">
        <ele>266.6</ele>
        <time>2016-09-29T14:05:02Z</time>
      </trkpt>
      <trkpt lat="44.34733" lon="1.61562">
        <ele>266.2</ele>
        <time>2016-09-29T14:05:19Z</time>
      </trkpt>
      <trkpt lat="44.34726" lon="1.6157">
        <ele>265.7</ele>
        <time>2016-09-29T14:09:02Z</time>
      </trkpt>
      <trkpt lat="44.34726" lon="1.61557">
        <ele>265.9</ele>
        <time>2016-09-29T14:12:39Z</time>
      </trkpt>
      <trkpt lat="44.34727" lon="1.6157">
        <ele>266.1</ele>
        <time>2016-09-29T14:18:21Z</time>
      </trkpt>
      <trkpt lat="44.34727" lon="1.61584">
        <ele>266</ele>
        <time>2016-09-29T14:18:34Z</time>
      </trkpt>
      <trkpt lat="44.34728" lon="1.61597">
        <ele>266.1</ele>
        <time>2016-09-29T14:18:44Z</time>
      </trkpt>
      <trkpt lat="44.34728" lon="1.6161">
        <ele>266.2</ele>
        <time>2016-09-29T14:18:54Z</time>
      </trkpt>
      <trkpt lat="44.34729" lon="1.61624">
        <ele>266.3</ele>
        <time>2016-09-29T14:19:04Z</time>
      </trkpt>
      <trkpt lat="44.34729" lon="1.61636">
        <ele>266.7</ele>
        <time>2016-09-29T14:19:15Z</time>
      </trkpt>
      <trkpt lat="44.34732" lon="1.61649">
        <ele>267</ele>
        <time>2016-09-29T14:19:25Z</time>
      </trkpt>
      <trkpt lat="44.34737" lon="1.61661">
        <ele>267.7</ele>
        <time>2016-09-29T14:19:35Z</time>
      </trkpt>
      <trkpt lat="44.34744" lon="1.6167">
        <ele>268.4</ele>
        <time>2016-09-29T14:19:44Z</time>
      </trkpt>
      <trkpt lat="44.3475" lon="1.61679">
        <ele>269.5</ele>
        <time>2016-09-29T14:19:53Z</time>
      </trkpt>
      <trkpt lat="44.34755" lon="1.6169">
        <ele>270.6</ele>
        <time>2016-09-29T14:20:04Z</time>
      </trkpt>
      <trkpt lat="44.3476" lon="1.61702">
        <ele>271.6</ele>
        <time>2016-09-29T14:20:15Z</time>
      </trkpt>
      <trkpt lat="44.34765" lon="1.61714">
        <ele>272.6</ele>
        <time>2016-09-29T14:20:27Z</time>
      </trkpt>
      <trkpt lat="44.3477" lon="1.61725">
        <ele>273.3</ele>
        <time>2016-09-29T14:20:38Z</time>
      </trkpt>
      <trkpt lat="44.34776" lon="1.61736">
        <ele>274.5</ele>
        <time>2016-09-29T14:20:49Z</time>
      </trkpt>
      <trkpt lat="44.3478" lon="1.61749">
        <ele>275.2</ele>
        <time>2016-09-29T14:20:59Z</time>
      </trkpt>
      <trkpt lat="44.34783" lon="1.61761">
        <ele>276.1</ele>
        <time>2016-09-29T14:21:08Z</time>
      </trkpt>
      <trkpt lat="44.34787" lon="1.61774">
        <ele>276.6</ele>
        <time>2016-09-29T14:21:17Z</time>
      </trkpt>
      <trkpt lat="44.3479" lon="1.61786">
        <ele>277</ele>
        <time>2016-09-29T14:21:25Z</time>
      </trkpt>
      <trkpt lat="44.34795" lon="1.61798">
        <ele>277.7</ele>
        <time>2016-09-29T14:21:33Z</time>
      </trkpt>
      <trkpt lat="44.348" lon="1.61809">
        <ele>278.3</ele>
        <time>2016-09-29T14:21:41Z</time>
      </trkpt>
      <trkpt lat="44.34804" lon="1.6182">
        <ele>278.9</ele>
        <time>2016-09-29T14:21:50Z</time>
      </trkpt>
      <trkpt lat="44.34809" lon="1.6183">
        <ele>279.3</ele>
        <time>2016-09-29T14:21:58Z</time>
      </trkpt>
      <trkpt lat="44.34815" lon="1.6184">
        <ele>280.3</ele>
        <time>2016-09-29T14:22:06Z</time>
      </trkpt>
      <trkpt lat="44.34821" lon="1.61849">
        <ele>281.2</ele>
        <time>2016-09-29T14:22:13Z</time>
      </trkpt>
      <trkpt lat="44.34829" lon="1.61858">
        <ele>282.2</ele>
        <time>2016-09-29T14:22:22Z</time>
      </trkpt>
      <trkpt lat="44.34836" lon="1.61866">
        <ele>282.9</ele>
        <time>2016-09-29T14:22:31Z</time>
      </trkpt>
      <trkpt lat="44.34844" lon="1.61873">
        <ele>283.3</ele>
        <time>2016-09-29T14:22:41Z</time>
      </trkpt>
      <trkpt lat="44.34853" lon="1.6188">
        <ele>283.5</ele>
        <time>2016-09-29T14:22:50Z</time>
      </trkpt>
      <trkpt lat="44.34861" lon="1.61888">
        <ele>284.2</ele>
        <time>2016-09-29T14:22:59Z</time>
      </trkpt>
      <trkpt lat="44.34869" lon="1.61896">
        <ele>284.5</ele>
        <time>2016-09-29T14:23:08Z</time>
      </trkpt>
      <trkpt lat="44.34876" lon="1.61906">
        <ele>285.4</ele>
        <time>2016-09-29T14:23:17Z</time>
      </trkpt>
      <trkpt lat="44.34882" lon="1.61916">
        <ele>285.9</ele>
        <time>2016-09-29T14:23:27Z</time>
      </trkpt>
      <trkpt lat="44.34888" lon="1.61926">
        <ele>286.2</ele>
        <time>2016-09-29T14:23:36Z</time>
      </trkpt>
      <trkpt lat="44.34895" lon="1.61935">
        <ele>286.5</ele>
        <time>2016-09-29T14:23:44Z</time>
      </trkpt>
      <trkpt lat="44.34902" lon="1.61945">
        <ele>287.4</ele>
        <time>2016-09-29T14:23:52Z</time>
      </trkpt>
      <trkpt lat="44.34909" lon="1.61954">
        <ele>288.3</ele>
        <time>2016-09-29T14:24:00Z</time>
      </trkpt>
      <trkpt lat="44.34916" lon="1.61963">
        <ele>288.6</ele>
        <time>2016-09-29T14:24:08Z</time>
      </trkpt>
      <trkpt lat="44.34922" lon="1.61974">
        <ele>289</ele>
        <time>2016-09-29T14:24:17Z</time>
      </trkpt>
      <trkpt lat="44.34929" lon="1.61983">
        <ele>289.2</ele>
        <time>2016-09-29T14:24:25Z</time>
      </trkpt>
      <trkpt lat="44.34935" lon="1.61993">
        <ele>289.3</ele>
        <time>2016-09-29T14:24:35Z</time>
      </trkpt>
      <trkpt lat="44.3494" lon="1.62005">
        <ele>289.4</ele>
        <time>2016-09-29T14:24:44Z</time>
      </trkpt>
      <trkpt lat="44.34944" lon="1.62017">
        <ele>289.4</ele>
        <time>2016-09-29T14:24:53Z</time>
      </trkpt>
      <trkpt lat="44.34949" lon="1.62029">
        <ele>289.8</ele>
        <time>2016-09-29T14:25:02Z</time>
      </trkpt>
      <trkpt lat="44.34953" lon="1.6204">
        <ele>290.5</ele>
        <time>2016-09-29T14:25:10Z</time>
      </trkpt>
      <trkpt lat="44.34958" lon="1.62052">
        <ele>291</ele>
        <time>2016-09-29T14:25:19Z</time>
      </trkpt>
      <trkpt lat="44.34961" lon="1.62064">
        <ele>291</ele>
        <time>2016-09-29T14:25:29Z</time>
      </trkpt>
      <trkpt lat="44.34964" lon="1.62077">
        <ele>291.3</ele>
        <time>2016-09-29T14:25:39Z</time>
      </trkpt>
      <trkpt lat="44.34967" lon="1.62089">
        <ele>291.4</ele>
        <time>2016-09-29T14:25:47Z</time>
      </trkpt>
      <trkpt lat="44.3497" lon="1.62101">
        <ele>291.5</ele>
        <time>2016-09-29T14:25:55Z</time>
      </trkpt>
      <trkpt lat="44.34973" lon="1.62114">
        <ele>291.5</ele>
        <time>2016-09-29T14:26:04Z</time>
      </trkpt>
      <trkpt lat="44.34977" lon="1.62127">
        <ele>291.7</ele>
        <time>2016-09-29T14:26:13Z</time>
      </trkpt>
      <trkpt lat="44.34983" lon="1.62138">
        <ele>292.3</ele>
        <time>2016-09-29T14:26:21Z</time>
      </trkpt>
      <trkpt lat="44.3499" lon="1.62147">
        <ele>292.8</ele>
        <time>2016-09-29T14:26:31Z</time>
      </trkpt>
      <trkpt lat="44.34998" lon="1.62155">
        <ele>293.3</ele>
        <time>2016-09-29T14:26:40Z</time>
      </trkpt>
      <trkpt lat="44.35006" lon="1.62164">
        <ele>294</ele>
        <time>2016-09-29T14:26:49Z</time>
      </trkpt>
      <trkpt lat="44.35013" lon="1.62172">
        <ele>294.3</ele>
        <time>2016-09-29T14:26:57Z</time>
      </trkpt>
      <trkpt lat="44.35019" lon="1.6218">
        <ele>294.5</ele>
        <time>2016-09-29T14:27:06Z</time>
      </trkpt>
      <trkpt lat="44.35026" lon="1.6219">
        <ele>294.8</ele>
        <time>2016-09-29T14:27:16Z</time>
      </trkpt>
      <trkpt lat="44.35032" lon="1.62199">
        <ele>295.1</ele>
        <time>2016-09-29T14:27:25Z</time>
      </trkpt>
      <trkpt lat="44.3504" lon="1.62208">
        <ele>295.2</ele>
        <time>2016-09-29T14:27:35Z</time>
      </trkpt>
      <trkpt lat="44.35048" lon="1.62214">
        <ele>295.3</ele>
        <time>2016-09-29T14:27:44Z</time>
      </trkpt>
      <trkpt lat="44.35057" lon="1.6222">
        <ele>295.3</ele>
        <time>2016-09-29T14:27:54Z</time>
      </trkpt>
      <trkpt lat="44.35065" lon="1.62226">
        <ele>295.4</ele>
        <time>2016-09-29T14:28:03Z</time>
      </trkpt>
      <trkpt lat="44.35074" lon="1.62234">
        <ele>295.4</ele>
        <time>2016-09-29T14:28:12Z</time>
      </trkpt>
      <trkpt lat="44.35081" lon="1.62241">
        <ele>295.1</ele>
        <time>2016-09-29T14:28:20Z</time>
      </trkpt>
      <trkpt lat="44.35088" lon="1.6225">
        <ele>294.9</ele>
        <time>2016-09-29T14:28:29Z</time>
      </trkpt>
      <trkpt lat="44.35093" lon="1.6226">
        <ele>294.7</ele>
        <time>2016-09-29T14:28:39Z</time>
      </trkpt>
      <trkpt lat="44.35098" lon="1.62272">
        <ele>294.3</ele>
        <time>2016-09-29T14:28:49Z</time>
      </trkpt>
      <trkpt lat="44.35104" lon="1.62283">
        <ele>294.1</ele>
        <time>2016-09-29T14:28:58Z</time>
      </trkpt>
      <trkpt lat="44.3511" lon="1.62294">
        <ele>294</ele>
        <time>2016-09-29T14:29:06Z</time>
      </trkpt>
      <trkpt lat="44.35115" lon="1.62304">
        <ele>293.9</ele>
        <time>2016-09-29T14:29:14Z</time>
      </trkpt>
      <trkpt lat="44.35122" lon="1.62314">
        <ele>294.2</ele>
        <time>2016-09-29T14:29:23Z</time>
      </trkpt>
      <trkpt lat="44.35128" lon="1.62323">
        <ele>294.2</ele>
        <time>2016-09-29T14:29:32Z</time>
      </trkpt>
      <trkpt lat="44.35135" lon="1.62331">
        <ele>294.2</ele>
        <time>2016-09-29T14:29:40Z</time>
      </trkpt>
      <trkpt lat="44.35143" lon="1.6234">
        <ele>294.1</ele>
        <time>2016-09-29T14:29:49Z</time>
      </trkpt>
      <trkpt lat="44.35151" lon="1.62348">
        <ele>294.4</ele>
        <time>2016-09-29T14:29:59Z</time>
      </trkpt>
      <trkpt lat="44.3516" lon="1.62352">
        <ele>294.4</ele>
        <time>2016-09-29T14:30:07Z</time>
      </trkpt>
      <trkpt lat="44.35169" lon="1.62356">
        <ele>294.3</ele>
        <time>2016-09-29T14:30:16Z</time>
      </trkpt>
      <trkpt lat="44.35178" lon="1.62359">
        <ele>294.4</ele>
        <time>2016-09-29T14:30:24Z</time>
      </trkpt>
      <trkpt lat="44.35188" lon="1.62362">
        <ele>294.7</ele>
        <time>2016-09-29T14:30:32Z</time>
      </trkpt>
      <trkpt lat="44.35197" lon="1.62365">
        <ele>294.7</ele>
        <time>2016-09-29T14:30:42Z</time>
      </trkpt>
      <trkpt lat="44.35207" lon="1.62366">
        <ele>294.7</ele>
        <time>2016-09-29T14:30:51Z</time>
      </trkpt>
      <trkpt lat="44.35216" lon="1.62369">
        <ele>294.6</ele>
        <time>2016-09-29T14:31:00Z</time>
      </trkpt>
      <trkpt lat="44.35225" lon="1.62372">
        <ele>294.4</ele>
        <time>2016-09-29T14:31:09Z</time>
      </trkpt>
      <trkpt lat="44.35233" lon="1.62378">
        <ele>294.4</ele>
        <time>2016-09-29T14:31:19Z</time>
      </trkpt>
      <trkpt lat="44.35242" lon="1.62382">
        <ele>294.2</ele>
        <time>2016-09-29T14:31:28Z</time>
      </trkpt>
      <trkpt lat="44.35251" lon="1.62385">
        <ele>293.9</ele>
        <time>2016-09-29T14:31:37Z</time>
      </trkpt>
      <trkpt lat="44.35259" lon="1.62391">
        <ele>293.2</ele>
        <time>2016-09-29T14:31:46Z</time>
      </trkpt>
      <trkpt lat="44.35266" lon="1.62399">
        <ele>292.9</ele>
        <time>2016-09-29T14:31:55Z</time>
      </trkpt>
      <trkpt lat="44.35273" lon="1.62409">
        <ele>292.7</ele>
        <time>2016-09-29T14:32:07Z</time>
      </trkpt>
      <trkpt lat="44.35278" lon="1.6242">
        <ele>292.8</ele>
        <time>2016-09-29T14:32:17Z</time>
      </trkpt>
      <trkpt lat="44.35284" lon="1.62432">
        <ele>292.9</ele>
        <time>2016-09-29T14:32:26Z</time>
      </trkpt>
      <trkpt lat="44.35288" lon="1.62444">
        <ele>293</ele>
        <time>2016-09-29T14:32:34Z</time>
      </trkpt>
      <trkpt lat="44.35289" lon="1.62456">
        <ele>293.1</ele>
        <time>2016-09-29T14:32:43Z</time>
      </trkpt>
      <trkpt lat="44.3529" lon="1.62469">
        <ele>293.1</ele>
        <time>2016-09-29T14:32:53Z</time>
      </trkpt>
      <trkpt lat="44.3529" lon="1.62483">
        <ele>293.1</ele>
        <time>2016-09-29T14:33:02Z</time>
      </trkpt>
      <trkpt lat="44.35291" lon="1.62497">
        <ele>293.4</ele>
        <time>2016-09-29T14:33:12Z</time>
      </trkpt>
      <trkpt lat="44.3529" lon="1.62509">
        <ele>293.2</ele>
        <time>2016-09-29T14:33:20Z</time>
      </trkpt>
      <trkpt lat="44.35289" lon="1.62523">
        <ele>293.4</ele>
        <time>2016-09-29T14:33:29Z</time>
      </trkpt>
      <trkpt lat="44.35289" lon="1.62536">
        <ele>294</ele>
        <time>2016-09-29T14:33:38Z</time>
      </trkpt>
      <trkpt lat="44.3529" lon="1.62549">
        <ele>294.3</ele>
        <time>2016-09-29T14:33:47Z</time>
      </trkpt>
      <trkpt lat="44.35295" lon="1.6256">
        <ele>294.7</ele>
        <time>2016-09-29T14:33:58Z</time>
      </trkpt>
      <trkpt lat="44.35302" lon="1.62567">
        <ele>295.5</ele>
        <time>2016-09-29T14:34:10Z</time>
      </trkpt>
      <trkpt lat="44.35305" lon="1.62579">
        <ele>296.7</ele>
        <time>2016-09-29T14:34:59Z</time>
      </trkpt>
      <trkpt lat="44.35296" lon="1.62581">
        <ele>296.5</ele>
        <time>2016-09-29T14:35:10Z</time>
      </trkpt>
      <trkpt lat="44.35293" lon="1.62593">
        <ele>296.3</ele>
        <time>2016-09-29T14:35:22Z</time>
      </trkpt>
      <trkpt lat="44.35292" lon="1.62607">
        <ele>296.2</ele>
        <time>2016-09-29T14:35:32Z</time>
      </trkpt>
      <trkpt lat="44.3529" lon="1.62621">
        <ele>296.6</ele>
        <time>2016-09-29T14:35:41Z</time>
      </trkpt>
      <trkpt lat="44.3529" lon="1.62635">
        <ele>297.3</ele>
        <time>2016-09-29T14:35:49Z</time>
      </trkpt>
      <trkpt lat="44.35289" lon="1.62648">
        <ele>297.4</ele>
        <time>2016-09-29T14:35:57Z</time>
      </trkpt>
      <trkpt lat="44.35289" lon="1.62661">
        <ele>297.3</ele>
        <time>2016-09-29T14:36:04Z</time>
      </trkpt>
      <trkpt lat="44.35288" lon="1.62674">
        <ele>297.4</ele>
        <time>2016-09-29T14:36:11Z</time>
      </trkpt>
      <trkpt lat="44.35288" lon="1.62687">
        <ele>297.6</ele>
        <time>2016-09-29T14:36:17Z</time>
      </trkpt>
      <trkpt lat="44.35286" lon="1.62701">
        <ele>298.1</ele>
        <time>2016-09-29T14:36:24Z</time>
      </trkpt>
      <trkpt lat="44.35284" lon="1.62714">
        <ele>298.3</ele>
        <time>2016-09-29T14:36:30Z</time>
      </trkpt>
      <trkpt lat="44.35282" lon="1.62728">
        <ele>298.5</ele>
        <time>2016-09-29T14:36:36Z</time>
      </trkpt>
      <trkpt lat="44.3528" lon="1.62741">
        <ele>298.8</ele>
        <time>2016-09-29T14:36:43Z</time>
      </trkpt>
      <trkpt lat="44.35279" lon="1.62755">
        <ele>299</ele>
        <time>2016-09-29T14:36:50Z</time>
      </trkpt>
      <trkpt lat="44.35277" lon="1.62769">
        <ele>299.3</ele>
        <time>2016-09-29T14:36:57Z</time>
      </trkpt>
      <trkpt lat="44.35275" lon="1.62782">
        <ele>300</ele>
        <time>2016-09-29T14:37:04Z</time>
      </trkpt>
      <trkpt lat="44.35273" lon="1.62796">
        <ele>300.4</ele>
        <time>2016-09-29T14:37:11Z</time>
      </trkpt>
      <trkpt lat="44.35271" lon="1.62808">
        <ele>300.7</ele>
        <time>2016-09-29T14:37:17Z</time>
      </trkpt>
      <trkpt lat="44.35268" lon="1.62822">
        <ele>301.1</ele>
        <time>2016-09-29T14:37:24Z</time>
      </trkpt>
      <trkpt lat="44.35265" lon="1.62834">
        <ele>301.4</ele>
        <time>2016-09-29T14:37:30Z</time>
      </trkpt>
      <trkpt lat="44.3526" lon="1.62848">
        <ele>301.4</ele>
        <time>2016-09-29T14:37:36Z</time>
      </trkpt>
      <trkpt lat="44.35256" lon="1.6286">
        <ele>301.4</ele>
        <time>2016-09-29T14:37:41Z</time>
      </trkpt>
      <trkpt lat="44.35251" lon="1.62873">
        <ele>301.3</ele>
        <time>2016-09-29T14:37:46Z</time>
      </trkpt>
      <trkpt lat="44.35247" lon="1.62884">
        <ele>301.2</ele>
        <time>2016-09-29T14:37:51Z</time>
      </trkpt>
      <trkpt lat="44.35242" lon="1.62898">
        <ele>301.1</ele>
        <time>2016-09-29T14:37:57Z</time>
      </trkpt>
      <trkpt lat="44.35238" lon="1.62912">
        <ele>301</ele>
        <time>2016-09-29T14:38:04Z</time>
      </trkpt>
      <trkpt lat="44.35236" lon="1.62925">
        <ele>300.8</ele>
        <time>2016-09-29T14:38:10Z</time>
      </trkpt>
      <trkpt lat="44.35233" lon="1.62939">
        <ele>300.5</ele>
        <time>2016-09-29T14:38:16Z</time>
      </trkpt>
      <trkpt lat="44.3523" lon="1.62952">
        <ele>300.2</ele>
        <time>2016-09-29T14:38:23Z</time>
      </trkpt>
      <trkpt lat="44.3523" lon="1.62965">
        <ele>299.8</ele>
        <time>2016-09-29T14:38:30Z</time>
      </trkpt>
      <trkpt lat="44.35229" lon="1.62979">
        <ele>299.6</ele>
        <time>2016-09-29T14:38:37Z</time>
      </trkpt>
      <trkpt lat="44.35228" lon="1.62992">
        <ele>299.4</ele>
        <time>2016-09-29T14:38:43Z</time>
      </trkpt>
      <trkpt lat="44.35226" lon="1.63005">
        <ele>299.4</ele>
        <time>2016-09-29T14:38:49Z</time>
      </trkpt>
      <trkpt lat="44.35224" lon="1.63019">
        <ele>299.5</ele>
        <time>2016-09-29T14:38:56Z</time>
      </trkpt>
      <trkpt lat="44.35222" lon="1.63032">
        <ele>299.4</ele>
        <time>2016-09-29T14:39:03Z</time>
      </trkpt>
      <trkpt lat="44.3522" lon="1.63046">
        <ele>299.4</ele>
        <time>2016-09-29T14:39:11Z</time>
      </trkpt>
      <trkpt lat="44.35218" lon="1.63058">
        <ele>299.4</ele>
        <time>2016-09-29T14:39:19Z</time>
      </trkpt>
      <trkpt lat="44.35217" lon="1.63071">
        <ele>299.4</ele>
        <time>2016-09-29T14:39:27Z</time>
      </trkpt>
      <trkpt lat="44.35216" lon="1.63084">
        <ele>299.4</ele>
        <time>2016-09-29T14:39:37Z</time>
      </trkpt>
      <trkpt lat="44.35214" lon="1.63097">
        <ele>299.4</ele>
        <time>2016-09-29T14:39:49Z</time>
      </trkpt>
      <trkpt lat="44.35211" lon="1.63109">
        <ele>299.8</ele>
        <time>2016-09-29T14:40:16Z</time>
      </trkpt>
      <trkpt lat="44.35211" lon="1.63122">
        <ele>299.9</ele>
        <time>2016-09-29T14:40:29Z</time>
      </trkpt>
      <trkpt lat="44.35207" lon="1.63135">
        <ele>300.1</ele>
        <time>2016-09-29T14:40:41Z</time>
      </trkpt>
      <trkpt lat="44.35202" lon="1.63146">
        <ele>300.4</ele>
        <time>2016-09-29T14:40:54Z</time>
      </trkpt>
      <trkpt lat="44.35201" lon="1.63158">
        <ele>300.7</ele>
        <time>2016-09-29T14:41:08Z</time>
      </trkpt>
      <trkpt lat="44.35201" lon="1.63172">
        <ele>300.7</ele>
        <time>2016-09-29T14:41:20Z</time>
      </trkpt>
      <trkpt lat="44.35205" lon="1.63184">
        <ele>300.3</ele>
        <time>2016-09-29T14:41:34Z</time>
      </trkpt>
      <trkpt lat="44.35208" lon="1.63197">
        <ele>300.2</ele>
        <time>2016-09-29T14:41:46Z</time>
      </trkpt>
      <trkpt lat="44.35208" lon="1.6321">
        <ele>300.4</ele>
        <time>2016-09-29T14:41:58Z</time>
      </trkpt>
      <trkpt lat="44.35208" lon="1.63223">
        <ele>300.8</ele>
        <time>2016-09-29T14:42:10Z</time>
      </trkpt>
      <trkpt lat="44.35207" lon="1.63236">
        <ele>300.9</ele>
        <time>2016-09-29T14:42:20Z</time>
      </trkpt>
      <trkpt lat="44.35206" lon="1.63249">
        <ele>301.1</ele>
        <time>2016-09-29T14:42:29Z</time>
      </trkpt>
      <trkpt lat="44.35204" lon="1.63261">
        <ele>301.2</ele>
        <time>2016-09-29T14:42:36Z</time>
      </trkpt>
      <trkpt lat="44.35203" lon="1.63274">
        <ele>301.4</ele>
        <time>2016-09-29T14:42:44Z</time>
      </trkpt>
      <trkpt lat="44.35202" lon="1.63287">
        <ele>302.9</ele>
        <time>2016-09-29T14:42:55Z</time>
      </trkpt>
      <trkpt lat="44.35205" lon="1.633">
        <ele>303.9</ele>
        <time>2016-09-29T14:43:08Z</time>
      </trkpt>
      <trkpt lat="44.35214" lon="1.63307">
        <ele>303.9</ele>
        <time>2016-09-29T14:43:23Z</time>
      </trkpt>
      <trkpt lat="44.35223" lon="1.63309">
        <ele>304.1</ele>
        <time>2016-09-29T14:43:34Z</time>
      </trkpt>
      <trkpt lat="44.35233" lon="1.63309">
        <ele>304.3</ele>
        <time>2016-09-29T14:43:44Z</time>
      </trkpt>
      <trkpt lat="44.35242" lon="1.63308">
        <ele>304.5</ele>
        <time>2016-09-29T14:43:53Z</time>
      </trkpt>
      <trkpt lat="44.35251" lon="1.63306">
        <ele>304.2</ele>
        <time>2016-09-29T14:44:01Z</time>
      </trkpt>
      <trkpt lat="44.3526" lon="1.63302">
        <ele>303.9</ele>
        <time>2016-09-29T14:44:10Z</time>
      </trkpt>
      <trkpt lat="44.35268" lon="1.63296">
        <ele>303.7</ele>
        <time>2016-09-29T14:44:19Z</time>
      </trkpt>
      <trkpt lat="44.35277" lon="1.6329">
        <ele>303.8</ele>
        <time>2016-09-29T14:44:27Z</time>
      </trkpt>
      <trkpt lat="44.35285" lon="1.63283">
        <ele>303.9</ele>
        <time>2016-09-29T14:44:36Z</time>
      </trkpt>
      <trkpt lat="44.35294" lon="1.63277">
        <ele>304.1</ele>
        <time>2016-09-29T14:44:47Z</time>
      </trkpt>
      <trkpt lat="44.35302" lon="1.63271">
        <ele>304.2</ele>
        <time>2016-09-29T14:44:58Z</time>
      </trkpt>
      <trkpt lat="44.3531" lon="1.63264">
        <ele>304.3</ele>
        <time>2016-09-29T14:45:08Z</time>
      </trkpt>
      <trkpt lat="44.35318" lon="1.63256">
        <ele>304.5</ele>
        <time>2016-09-29T14:45:20Z</time>
      </trkpt>
      <trkpt lat="44.35325" lon="1.63249">
        <ele>304.6</ele>
        <time>2016-09-29T14:45:30Z</time>
      </trkpt>
      <trkpt lat="44.35334" lon="1.63244">
        <ele>304.6</ele>
        <time>2016-09-29T14:45:39Z</time>
      </trkpt>
      <trkpt lat="44.35342" lon="1.63238">
        <ele>304.6</ele>
        <time>2016-09-29T14:45:49Z</time>
      </trkpt>
      <trkpt lat="44.3535" lon="1.63231">
        <ele>304.2</ele>
        <time>2016-09-29T14:45:58Z</time>
      </trkpt>
      <trkpt lat="44.35359" lon="1.63225">
        <ele>304</ele>
        <time>2016-09-29T14:46:07Z</time>
      </trkpt>
      <trkpt lat="44.35366" lon="1.63217">
        <ele>304</ele>
        <time>2016-09-29T14:46:16Z</time>
      </trkpt>
      <trkpt lat="44.35375" lon="1.6321">
        <ele>303.4</ele>
        <time>2016-09-29T14:46:26Z</time>
      </trkpt>
      <trkpt lat="44.35383" lon="1.63203">
        <ele>303</ele>
        <time>2016-09-29T14:46:36Z</time>
      </trkpt>
      <trkpt lat="44.35391" lon="1.63196">
        <ele>302.8</ele>
        <time>2016-09-29T14:46:46Z</time>
      </trkpt>
      <trkpt lat="44.35399" lon="1.63189">
        <ele>302.6</ele>
        <time>2016-09-29T14:46:55Z</time>
      </trkpt>
      <trkpt lat="44.35407" lon="1.63182">
        <ele>302.3</ele>
        <time>2016-09-29T14:47:04Z</time>
      </trkpt>
      <trkpt lat="44.35416" lon="1.63175">
        <ele>302.1</ele>
        <time>2016-09-29T14:47:14Z</time>
      </trkpt>
      <trkpt lat="44.35423" lon="1.63167">
        <ele>302</ele>
        <time>2016-09-29T14:47:23Z</time>
      </trkpt>
      <trkpt lat="44.35431" lon="1.6316">
        <ele>302.1</ele>
        <time>2016-09-29T14:47:32Z</time>
      </trkpt>
      <trkpt lat="44.35439" lon="1.63154">
        <ele>302</ele>
        <time>2016-09-29T14:47:42Z</time>
      </trkpt>
      <trkpt lat="44.35448" lon="1.63147">
        <ele>301.9</ele>
        <time>2016-09-29T14:47:51Z</time>
      </trkpt>
      <trkpt lat="44.35456" lon="1.63138">
        <ele>301.9</ele>
        <time>2016-09-29T14:47:59Z</time>
      </trkpt>
      <trkpt lat="44.35463" lon="1.63131">
        <ele>301.8</ele>
        <time>2016-09-29T14:48:08Z</time>
      </trkpt>
      <trkpt lat="44.35471" lon="1.63124">
        <ele>302.1</ele>
        <time>2016-09-29T14:48:17Z</time>
      </trkpt>
      <trkpt lat="44.3548" lon="1.63119">
        <ele>302.7</ele>
        <time>2016-09-29T14:48:25Z</time>
      </trkpt>
      <trkpt lat="44.35489" lon="1.63112">
        <ele>303.2</ele>
        <time>2016-09-29T14:48:34Z</time>
      </trkpt>
      <trkpt lat="44.35497" lon="1.63105">
        <ele>303.6</ele>
        <time>2016-09-29T14:48:43Z</time>
      </trkpt>
      <trkpt lat="44.35505" lon="1.63099">
        <ele>303.7</ele>
        <time>2016-09-29T14:48:52Z</time>
      </trkpt>
      <trkpt lat="44.35513" lon="1.63092">
        <ele>303.8</ele>
        <time>2016-09-29T14:49:00Z</time>
      </trkpt>
      <trkpt lat="44.35522" lon="1.63086">
        <ele>303.8</ele>
        <time>2016-09-29T14:49:09Z</time>
      </trkpt>
      <trkpt lat="44.35531" lon="1.6308">
        <ele>303.7</ele>
        <time>2016-09-29T14:49:18Z</time>
      </trkpt>
      <trkpt lat="44.3554" lon="1.63082">
        <ele>303.7</ele>
        <time>2016-09-29T14:49:26Z</time>
      </trkpt>
      <trkpt lat="44.35548" lon="1.63089">
        <ele>303.7</ele>
        <time>2016-09-29T14:49:36Z</time>
      </trkpt>
      <trkpt lat="44.35555" lon="1.63099">
        <ele>303.7</ele>
        <time>2016-09-29T14:49:46Z</time>
      </trkpt>
      <trkpt lat="44.35561" lon="1.63109">
        <ele>304.1</ele>
        <time>2016-09-29T14:49:55Z</time>
      </trkpt>
      <trkpt lat="44.35567" lon="1.63118">
        <ele>304.6</ele>
        <time>2016-09-29T14:50:04Z</time>
      </trkpt>
      <trkpt lat="44.35574" lon="1.63129">
        <ele>304.9</ele>
        <time>2016-09-29T14:50:16Z</time>
      </trkpt>
      <trkpt lat="44.35581" lon="1.63137">
        <ele>304.9</ele>
        <time>2016-09-29T14:50:26Z</time>
      </trkpt>
      <trkpt lat="44.3559" lon="1.63141">
        <ele>304.9</ele>
        <time>2016-09-29T14:50:36Z</time>
      </trkpt>
      <trkpt lat="44.35599" lon="1.63148">
        <ele>305.3</ele>
        <time>2016-09-29T14:50:46Z</time>
      </trkpt>
      <trkpt lat="44.35608" lon="1.63153">
        <ele>305.5</ele>
        <time>2016-09-29T14:50:55Z</time>
      </trkpt>
      <trkpt lat="44.35618" lon="1.63156">
        <ele>305.6</ele>
        <time>2016-09-29T14:51:03Z</time>
      </trkpt>
      <trkpt lat="44.35627" lon="1.63161">
        <ele>305.6</ele>
        <time>2016-09-29T14:51:12Z</time>
      </trkpt>
      <trkpt lat="44.35637" lon="1.63163">
        <ele>305.6</ele>
        <time>2016-09-29T14:51:20Z</time>
      </trkpt>
      <trkpt lat="44.35645" lon="1.63168">
        <ele>305.8</ele>
        <time>2016-09-29T14:51:27Z</time>
      </trkpt>
      <trkpt lat="44.35654" lon="1.63171">
        <ele>305.8</ele>
        <time>2016-09-29T14:51:35Z</time>
      </trkpt>
      <trkpt lat="44.35664" lon="1.63173">
        <ele>305.7</ele>
        <time>2016-09-29T14:51:46Z</time>
      </trkpt>
      <trkpt lat="44.35674" lon="1.63174">
        <ele>305.6</ele>
        <time>2016-09-29T14:51:55Z</time>
      </trkpt>
      <trkpt lat="44.35683" lon="1.63173">
        <ele>305.5</ele>
        <time>2016-09-29T14:52:03Z</time>
      </trkpt>
      <trkpt lat="44.35692" lon="1.63171">
        <ele>305.3</ele>
        <time>2016-09-29T14:52:12Z</time>
      </trkpt>
      <trkpt lat="44.35702" lon="1.63172">
        <ele>305</ele>
        <time>2016-09-29T14:52:20Z</time>
      </trkpt>
      <trkpt lat="44.35711" lon="1.63173">
        <ele>304.9</ele>
        <time>2016-09-29T14:52:29Z</time>
      </trkpt>
      <trkpt lat="44.35721" lon="1.63174">
        <ele>304.6</ele>
        <time>2016-09-29T14:52:37Z</time>
      </trkpt>
      <trkpt lat="44.3573" lon="1.63175">
        <ele>304</ele>
        <time>2016-09-29T14:52:46Z</time>
      </trkpt>
      <trkpt lat="44.35738" lon="1.63178">
        <ele>303.7</ele>
        <time>2016-09-29T14:52:54Z</time>
      </trkpt>
      <trkpt lat="44.35748" lon="1.63181">
        <ele>303.3</ele>
        <time>2016-09-29T14:53:02Z</time>
      </trkpt>
      <trkpt lat="44.35757" lon="1.63183">
        <ele>303</ele>
        <time>2016-09-29T14:53:10Z</time>
      </trkpt>
      <trkpt lat="44.35767" lon="1.63183">
        <ele>302.8</ele>
        <time>2016-09-29T14:53:18Z</time>
      </trkpt>
      <trkpt lat="44.35776" lon="1.63187">
        <ele>302.6</ele>
        <time>2016-09-29T14:53:26Z</time>
      </trkpt>
      <trkpt lat="44.35785" lon="1.63189">
        <ele>302.4</ele>
        <time>2016-09-29T14:53:34Z</time>
      </trkpt>
      <trkpt lat="44.35794" lon="1.63193">
        <ele>302.1</ele>
        <time>2016-09-29T14:53:42Z</time>
      </trkpt>
      <trkpt lat="44.35804" lon="1.63195">
        <ele>301.9</ele>
        <time>2016-09-29T14:53:50Z</time>
      </trkpt>
      <trkpt lat="44.35813" lon="1.63198">
        <ele>301.7</ele>
        <time>2016-09-29T14:53:58Z</time>
      </trkpt>
      <trkpt lat="44.35822" lon="1.63199">
        <ele>301.5</ele>
        <time>2016-09-29T14:54:06Z</time>
      </trkpt>
      <trkpt lat="44.35831" lon="1.63201">
        <ele>301.4</ele>
        <time>2016-09-29T14:54:14Z</time>
      </trkpt>
      <trkpt lat="44.35841" lon="1.63202">
        <ele>301.4</ele>
        <time>2016-09-29T14:54:22Z</time>
      </trkpt>
      <trkpt lat="44.3585" lon="1.63204">
        <ele>301</ele>
        <time>2016-09-29T14:54:31Z</time>
      </trkpt>
      <trkpt lat="44.3586" lon="1.63204">
        <ele>300.7</ele>
        <time>2016-09-29T14:54:40Z</time>
      </trkpt>
      <trkpt lat="44.3587" lon="1.63206">
        <ele>300.7</ele>
        <time>2016-09-29T14:54:49Z</time>
      </trkpt>
      <trkpt lat="44.35879" lon="1.63208">
        <ele>300.8</ele>
        <time>2016-09-29T14:54:58Z</time>
      </trkpt>
      <trkpt lat="44.35889" lon="1.63208">
        <ele>300.8</ele>
        <time>2016-09-29T14:55:07Z</time>
      </trkpt>
      <trkpt lat="44.35898" lon="1.63209">
        <ele>300.8</ele>
        <time>2016-09-29T14:55:16Z</time>
      </trkpt>
      <trkpt lat="44.35908" lon="1.63209">
        <ele>300.5</ele>
        <time>2016-09-29T14:55:24Z</time>
      </trkpt>
      <trkpt lat="44.35917" lon="1.63208">
        <ele>300.3</ele>
        <time>2016-09-29T14:55:31Z</time>
      </trkpt>
      <trkpt lat="44.35927" lon="1.63208">
        <ele>300.2</ele>
        <time>2016-09-29T14:55:39Z</time>
      </trkpt>
      <trkpt lat="44.35937" lon="1.63209">
        <ele>299.9</ele>
        <time>2016-09-29T14:55:47Z</time>
      </trkpt>
      <trkpt lat="44.35947" lon="1.63211">
        <ele>299.4</ele>
        <time>2016-09-29T14:55:55Z</time>
      </trkpt>
      <trkpt lat="44.35956" lon="1.63213">
        <ele>298.6</ele>
        <time>2016-09-29T14:56:03Z</time>
      </trkpt>
      <trkpt lat="44.35966" lon="1.63216">
        <ele>298</ele>
        <time>2016-09-29T14:56:11Z</time>
      </trkpt>
      <trkpt lat="44.35976" lon="1.63219">
        <ele>297.2</ele>
        <time>2016-09-29T14:56:18Z</time>
      </trkpt>
      <trkpt lat="44.35986" lon="1.63221">
        <ele>296.5</ele>
        <time>2016-09-29T14:56:27Z</time>
      </trkpt>
      <trkpt lat="44.35995" lon="1.63224">
        <ele>296.1</ele>
        <time>2016-09-29T14:56:34Z</time>
      </trkpt>
      <trkpt lat="44.36004" lon="1.63229">
        <ele>295.7</ele>
        <time>2016-09-29T14:56:43Z</time>
      </trkpt>
      <trkpt lat="44.36013" lon="1.63236">
        <ele>295.5</ele>
        <time>2016-09-29T14:56:53Z</time>
      </trkpt>
      <trkpt lat="44.36021" lon="1.63243">
        <ele>295.6</ele>
        <time>2016-09-29T14:57:02Z</time>
      </trkpt>
      <trkpt lat="44.3603" lon="1.63246">
        <ele>295.6</ele>
        <time>2016-09-29T14:57:10Z</time>
      </trkpt>
      <trkpt lat="44.3604" lon="1.6324">
        <ele>295.4</ele>
        <time>2016-09-29T14:57:18Z</time>
      </trkpt>
      <trkpt lat="44.36048" lon="1.63235">
        <ele>295.4</ele>
        <time>2016-09-29T14:57:25Z</time>
      </trkpt>
      <trkpt lat="44.36056" lon="1.63229">
        <ele>295.3</ele>
        <time>2016-09-29T14:57:32Z</time>
      </trkpt>
      <trkpt lat="44.36065" lon="1.63222">
        <ele>295.2</ele>
        <time>2016-09-29T14:57:39Z</time>
      </trkpt>
      <trkpt lat="44.36073" lon="1.63216">
        <ele>295.1</ele>
        <time>2016-09-29T14:57:47Z</time>
      </trkpt>
      <trkpt lat="44.36083" lon="1.63212">
        <ele>295.1</ele>
        <time>2016-09-29T14:57:55Z</time>
      </trkpt>
      <trkpt lat="44.36092" lon="1.6321">
        <ele>295.3</ele>
        <time>2016-09-29T14:58:06Z</time>
      </trkpt>
      <trkpt lat="44.36101" lon="1.63209">
        <ele>295.6</ele>
        <time>2016-09-29T14:58:15Z</time>
      </trkpt>
      <trkpt lat="44.36111" lon="1.63209">
        <ele>296.2</ele>
        <time>2016-09-29T14:58:26Z</time>
      </trkpt>
      <trkpt lat="44.3612" lon="1.63205">
        <ele>296.9</ele>
        <time>2016-09-29T14:58:37Z</time>
      </trkpt>
      <trkpt lat="44.36129" lon="1.632">
        <ele>296.9</ele>
        <time>2016-09-29T14:58:47Z</time>
      </trkpt>
      <trkpt lat="44.36138" lon="1.63195">
        <ele>296.8</ele>
        <time>2016-09-29T14:58:56Z</time>
      </trkpt>
      <trkpt lat="44.36147" lon="1.6319">
        <ele>296.8</ele>
        <time>2016-09-29T14:59:05Z</time>
      </trkpt>
      <trkpt lat="44.36156" lon="1.63186">
        <ele>297.3</ele>
        <time>2016-09-29T14:59:14Z</time>
      </trkpt>
      <trkpt lat="44.36165" lon="1.63182">
        <ele>297.6</ele>
        <time>2016-09-29T14:59:22Z</time>
      </trkpt>
      <trkpt lat="44.36175" lon="1.63178">
        <ele>298</ele>
        <time>2016-09-29T14:59:30Z</time>
      </trkpt>
      <trkpt lat="44.36184" lon="1.63174">
        <ele>298.2</ele>
        <time>2016-09-29T14:59:37Z</time>
      </trkpt>
      <trkpt lat="44.36192" lon="1.63168">
        <ele>298.3</ele>
        <time>2016-09-29T14:59:45Z</time>
      </trkpt>
      <trkpt lat="44.362" lon="1.6316">
        <ele>298.5</ele>
        <time>2016-09-29T14:59:53Z</time>
      </trkpt>
      <trkpt lat="44.36208" lon="1.63152">
        <ele>298.5</ele>
        <time>2016-09-29T15:00:01Z</time>
      </trkpt>
      <trkpt lat="44.36216" lon="1.63144">
        <ele>298.6</ele>
        <time>2016-09-29T15:00:10Z</time>
      </trkpt>
      <trkpt lat="44.36223" lon="1.63136">
        <ele>298.7</ele>
        <time>2016-09-29T15:00:18Z</time>
      </trkpt>
      <trkpt lat="44.36231" lon="1.63128">
        <ele>298.7</ele>
        <time>2016-09-29T15:00:26Z</time>
      </trkpt>
      <trkpt lat="44.36238" lon="1.63122">
        <ele>299</ele>
        <time>2016-09-29T15:00:34Z</time>
      </trkpt>
      <trkpt lat="44.36247" lon="1.63115">
        <ele>299.1</ele>
        <time>2016-09-29T15:00:43Z</time>
      </trkpt>
      <trkpt lat="44.36255" lon="1.63109">
        <ele>298.9</ele>
        <time>2016-09-29T15:00:51Z</time>
      </trkpt>
      <trkpt lat="44.36263" lon="1.63103">
        <ele>298.5</ele>
        <time>2016-09-29T15:01:00Z</time>
      </trkpt>
      <trkpt lat="44.36271" lon="1.63096">
        <ele>298</ele>
        <time>2016-09-29T15:01:18Z</time>
      </trkpt>
      <trkpt lat="44.36279" lon="1.63091">
        <ele>297.6</ele>
        <time>2016-09-29T15:01:34Z</time>
      </trkpt>
      <trkpt lat="44.36289" lon="1.63091">
        <ele>297.6</ele>
        <time>2016-09-29T15:01:42Z</time>
      </trkpt>
      <trkpt lat="44.36298" lon="1.63093">
        <ele>297.7</ele>
        <time>2016-09-29T15:01:50Z</time>
      </trkpt>
      <trkpt lat="44.36307" lon="1.63094">
        <ele>297.5</ele>
        <time>2016-09-29T15:01:58Z</time>
      </trkpt>
      <trkpt lat="44.36317" lon="1.63097">
        <ele>297.4</ele>
        <time>2016-09-29T15:02:06Z</time>
      </trkpt>
      <trkpt lat="44.36326" lon="1.63099">
        <ele>297.2</ele>
        <time>2016-09-29T15:02:14Z</time>
      </trkpt>
      <trkpt lat="44.36336" lon="1.63101">
        <ele>297.2</ele>
        <time>2016-09-29T15:02:23Z</time>
      </trkpt>
      <trkpt lat="44.36345" lon="1.63104">
        <ele>297.1</ele>
        <time>2016-09-29T15:02:30Z</time>
      </trkpt>
      <trkpt lat="44.36355" lon="1.63107">
        <ele>297.1</ele>
        <time>2016-09-29T15:02:37Z</time>
      </trkpt>
      <trkpt lat="44.36364" lon="1.6311">
        <ele>296.8</ele>
        <time>2016-09-29T15:02:44Z</time>
      </trkpt>
      <trkpt lat="44.36374" lon="1.63113">
        <ele>296.5</ele>
        <time>2016-09-29T15:02:51Z</time>
      </trkpt>
      <trkpt lat="44.36383" lon="1.63115">
        <ele>296.1</ele>
        <time>2016-09-29T15:02:59Z</time>
      </trkpt>
      <trkpt lat="44.36392" lon="1.63115">
        <ele>295.3</ele>
        <time>2016-09-29T15:03:09Z</time>
      </trkpt>
      <trkpt lat="44.364" lon="1.6312">
        <ele>294.6</ele>
        <time>2016-09-29T15:03:17Z</time>
      </trkpt>
      <trkpt lat="44.36404" lon="1.63132">
        <ele>292.9</ele>
        <time>2016-09-29T15:03:27Z</time>
      </trkpt>
      <trkpt lat="44.36404" lon="1.63145">
        <ele>291.9</ele>
        <time>2016-09-29T15:03:38Z</time>
      </trkpt>
      <trkpt lat="44.36403" lon="1.63159">
        <ele>291.4</ele>
        <time>2016-09-29T15:03:47Z</time>
      </trkpt>
      <trkpt lat="44.364" lon="1.63172">
        <ele>290.8</ele>
        <time>2016-09-29T15:03:56Z</time>
      </trkpt>
      <trkpt lat="44.36397" lon="1.63185">
        <ele>290.5</ele>
        <time>2016-09-29T15:04:04Z</time>
      </trkpt>
      <trkpt lat="44.36394" lon="1.63197">
        <ele>290.2</ele>
        <time>2016-09-29T15:04:12Z</time>
      </trkpt>
      <trkpt lat="44.3639" lon="1.6321">
        <ele>289.9</ele>
        <time>2016-09-29T15:04:21Z</time>
      </trkpt>
      <trkpt lat="44.36388" lon="1.63223">
        <ele>289.8</ele>
        <time>2016-09-29T15:04:28Z</time>
      </trkpt>
      <trkpt lat="44.36386" lon="1.63236">
        <ele>289.7</ele>
        <time>2016-09-29T15:04:36Z</time>
      </trkpt>
      <trkpt lat="44.36384" lon="1.63249">
        <ele>289.6</ele>
        <time>2016-09-29T15:04:43Z</time>
      </trkpt>
      <trkpt lat="44.36385" lon="1.63264">
        <ele>289.6</ele>
        <time>2016-09-29T15:04:50Z</time>
      </trkpt>
      <trkpt lat="44.36386" lon="1.63277">
        <ele>289.4</ele>
        <time>2016-09-29T15:04:58Z</time>
      </trkpt>
      <trkpt lat="44.36392" lon="1.63288">
        <ele>289</ele>
        <time>2016-09-29T15:05:11Z</time>
      </trkpt>
      <trkpt lat="44.36401" lon="1.63293">
        <ele>289</ele>
        <time>2016-09-29T15:05:24Z</time>
      </trkpt>
      <trkpt lat="44.3641" lon="1.63295">
        <ele>288.5</ele>
        <time>2016-09-29T15:05:33Z</time>
      </trkpt>
      <trkpt lat="44.36419" lon="1.63294">
        <ele>288</ele>
        <time>2016-09-29T15:05:42Z</time>
      </trkpt>
      <trkpt lat="44.36428" lon="1.63295">
        <ele>287.8</ele>
        <time>2016-09-29T15:05:51Z</time>
      </trkpt>
      <trkpt lat="44.36438" lon="1.63295">
        <ele>287.6</ele>
        <time>2016-09-29T15:06:00Z</time>
      </trkpt>
      <trkpt lat="44.36447" lon="1.63294">
        <ele>287.6</ele>
        <time>2016-09-29T15:06:09Z</time>
      </trkpt>
      <trkpt lat="44.36457" lon="1.63293">
        <ele>287.9</ele>
        <time>2016-09-29T15:06:19Z</time>
      </trkpt>
      <trkpt lat="44.36467" lon="1.63292">
        <ele>288.1</ele>
        <time>2016-09-29T15:06:28Z</time>
      </trkpt>
      <trkpt lat="44.36477" lon="1.63291">
        <ele>288.3</ele>
        <time>2016-09-29T15:06:37Z</time>
      </trkpt>
      <trkpt lat="44.36486" lon="1.63292">
        <ele>288.6</ele>
        <time>2016-09-29T15:06:51Z</time>
      </trkpt>
      <trkpt lat="44.36495" lon="1.63294">
        <ele>289.1</ele>
        <time>2016-09-29T15:07:00Z</time>
      </trkpt>
      <trkpt lat="44.36504" lon="1.63297">
        <ele>289.7</ele>
        <time>2016-09-29T15:07:09Z</time>
      </trkpt>
      <trkpt lat="44.36513" lon="1.63303">
        <ele>289.9</ele>
        <time>2016-09-29T15:07:19Z</time>
      </trkpt>
      <trkpt lat="44.36521" lon="1.63308">
        <ele>290.3</ele>
        <time>2016-09-29T15:07:30Z</time>
      </trkpt>
      <trkpt lat="44.3653" lon="1.63312">
        <ele>291.1</ele>
        <time>2016-09-29T15:07:41Z</time>
      </trkpt>
      <trkpt lat="44.36539" lon="1.63316">
        <ele>291.4</ele>
        <time>2016-09-29T15:07:51Z</time>
      </trkpt>
      <trkpt lat="44.36548" lon="1.6332">
        <ele>291.9</ele>
        <time>2016-09-29T15:08:01Z</time>
      </trkpt>
      <trkpt lat="44.36556" lon="1.63325">
        <ele>292.8</ele>
        <time>2016-09-29T15:08:14Z</time>
      </trkpt>
      <trkpt lat="44.36565" lon="1.63331">
        <ele>293.4</ele>
        <time>2016-09-29T15:08:27Z</time>
      </trkpt>
      <trkpt lat="44.36573" lon="1.63338">
        <ele>294.1</ele>
        <time>2016-09-29T15:08:36Z</time>
      </trkpt>
      <trkpt lat="44.36581" lon="1.63344">
        <ele>295</ele>
        <time>2016-09-29T15:08:51Z</time>
      </trkpt>
      <trkpt lat="44.36589" lon="1.63351">
        <ele>295.3</ele>
        <time>2016-09-29T15:08:58Z</time>
      </trkpt>
      <trkpt lat="44.36598" lon="1.63359">
        <ele>295.8</ele>
        <time>2016-09-29T15:09:06Z</time>
      </trkpt>
      <trkpt lat="44.36607" lon="1.63364">
        <ele>296.5</ele>
        <time>2016-09-29T15:09:14Z</time>
      </trkpt>
      <trkpt lat="44.36616" lon="1.63366">
        <ele>297</ele>
        <time>2016-09-29T15:09:23Z</time>
      </trkpt>
      <trkpt lat="44.36625" lon="1.63366">
        <ele>297.2</ele>
        <time>2016-09-29T15:09:31Z</time>
      </trkpt>
      <trkpt lat="44.36634" lon="1.63369">
        <ele>297.3</ele>
        <time>2016-09-29T15:09:39Z</time>
      </trkpt>
      <trkpt lat="44.36643" lon="1.63367">
        <ele>297.4</ele>
        <time>2016-09-29T15:09:47Z</time>
      </trkpt>
      <trkpt lat="44.36652" lon="1.63371">
        <ele>297.4</ele>
        <time>2016-09-29T15:09:57Z</time>
      </trkpt>
      <trkpt lat="44.3666" lon="1.63379">
        <ele>297.4</ele>
        <time>2016-09-29T15:10:06Z</time>
      </trkpt>
      <trkpt lat="44.36668" lon="1.63384">
        <ele>297.3</ele>
        <time>2016-09-29T15:10:18Z</time>
      </trkpt>
      <trkpt lat="44.36678" lon="1.63389">
        <ele>297.4</ele>
        <time>2016-09-29T15:11:20Z</time>
      </trkpt>
      <trkpt lat="44.36686" lon="1.63395">
        <ele>297.8</ele>
        <time>2016-09-29T15:11:57Z</time>
      </trkpt>
      <trkpt lat="44.36695" lon="1.63393">
        <ele>297.5</ele>
        <time>2016-09-29T15:12:07Z</time>
      </trkpt>
      <trkpt lat="44.36704" lon="1.63389">
        <ele>297.6</ele>
        <time>2016-09-29T15:12:21Z</time>
      </trkpt>
      <trkpt lat="44.36714" lon="1.63389">
        <ele>297.8</ele>
        <time>2016-09-29T15:12:30Z</time>
      </trkpt>
      <trkpt lat="44.36719" lon="1.63392">
        <ele>297.2</ele>
        <time>2016-09-29T15:15:57Z</time>
      </trkpt>
    </trkseg>
  </trk>
</gpx>